<?xml version="1.0" encoding="UTF-8"?>
<gpx version="1.1" creator="https://www.youtrack.es" xsi:schemaLocation="http://www.topografix.com/GPX/1/1 http://www.topografix.com/GPX/1/1/gpx.xsd http://www.garmin.com/xmlschemas/GpxExtensions/v3 http://www.garmin.com/xmlschemas/GpxExtensionsv3.xsd http://www.garmin.com/xmlschemas/TrackPointExtension/v1 http://www.garmin.com/xmlschemas/TrackPointExtensionv1.xsd" xmlns:gpxtpx="http://www.garmin.com/xmlschemas/TrackPointExtension/v1" xmlns:gpxx="http://www.garmin.com/xmlschemas/GpxExtensions/v3" xmlns:xsi="http://www.w3.org/2001/XMLSchema-instance">
  <metadata>
    <link href="https://www.youtrack.es">
      <text>YouTrack.es</text>
    </link>
    <time>2026-05-10T16:55:46Z</time>
  </metadata>
  <trk>
    <src>https://www.youtrack.es</src>
    <link href="https://www.youtrack.es/ruta/5490-albufeira-faro">
      <text>YouTrack.es</text>
    </link>
    <trkseg>
      <trkpt lat="37.09863070" lon="-8.38401675">
        <ele>35.000000</ele>
        <time>2010-01-01T00:00:00Z</time>
      </trkpt>
      <trkpt lat="37.09891730" lon="-8.38371634">
        <ele>36.000000</ele>
        <time>2010-01-01T00:00:14Z</time>
      </trkpt>
      <trkpt lat="37.09961470" lon="-8.38348031">
        <ele>41.000000</ele>
        <time>2010-01-01T00:00:43Z</time>
      </trkpt>
      <trkpt lat="37.10053890" lon="-8.38326036">
        <ele>42.000000</ele>
        <time>2010-01-01T00:01:21Z</time>
      </trkpt>
      <trkpt lat="37.10121060" lon="-8.38322281">
        <ele>47.000000</ele>
        <time>2010-01-01T00:01:48Z</time>
      </trkpt>
      <trkpt lat="37.10162140" lon="-8.38319599">
        <ele>49.000000</ele>
        <time>2010-01-01T00:02:04Z</time>
      </trkpt>
      <trkpt lat="37.10178400" lon="-8.38263273">
        <ele>48.000000</ele>
        <time>2010-01-01T00:02:24Z</time>
      </trkpt>
      <trkpt lat="37.10214330" lon="-8.38228404">
        <ele>50.000000</ele>
        <time>2010-01-01T00:02:42Z</time>
      </trkpt>
      <trkpt lat="37.10219040" lon="-8.38191390">
        <ele>46.000000</ele>
        <time>2010-01-01T00:02:54Z</time>
      </trkpt>
      <trkpt lat="37.10232730" lon="-8.38159203">
        <ele>44.000000</ele>
        <time>2010-01-01T00:03:05Z</time>
      </trkpt>
      <trkpt lat="37.10250700" lon="-8.38143110">
        <ele>44.000000</ele>
        <time>2010-01-01T00:03:14Z</time>
      </trkpt>
      <trkpt lat="37.10264820" lon="-8.38161349">
        <ele>45.000000</ele>
        <time>2010-01-01T00:03:22Z</time>
      </trkpt>
      <trkpt lat="37.10290060" lon="-8.38174760">
        <ele>48.000000</ele>
        <time>2010-01-01T00:03:33Z</time>
      </trkpt>
      <trkpt lat="37.10312310" lon="-8.38175833">
        <ele>50.000000</ele>
        <time>2010-01-01T00:03:42Z</time>
      </trkpt>
      <trkpt lat="37.10335840" lon="-8.38174223">
        <ele>51.000000</ele>
        <time>2010-01-01T00:03:52Z</time>
      </trkpt>
      <trkpt lat="37.10364080" lon="-8.38185489">
        <ele>52.000000</ele>
        <time>2010-01-01T00:04:03Z</time>
      </trkpt>
      <trkpt lat="37.10387610" lon="-8.38184952">
        <ele>52.000000</ele>
        <time>2010-01-01T00:04:13Z</time>
      </trkpt>
      <trkpt lat="37.10430390" lon="-8.38160276">
        <ele>52.000000</ele>
        <time>2010-01-01T00:04:32Z</time>
      </trkpt>
      <trkpt lat="37.10468040" lon="-8.38142037">
        <ele>52.000000</ele>
        <time>2010-01-01T00:04:48Z</time>
      </trkpt>
      <trkpt lat="37.10495850" lon="-8.38100194">
        <ele>50.000000</ele>
        <time>2010-01-01T00:05:05Z</time>
      </trkpt>
      <trkpt lat="37.10434240" lon="-8.38042259">
        <ele>45.000000</ele>
        <time>2010-01-01T00:05:36Z</time>
      </trkpt>
      <trkpt lat="37.10430390" lon="-8.38026165">
        <ele>45.000000</ele>
        <time>2010-01-01T00:05:41Z</time>
      </trkpt>
      <trkpt lat="37.10436380" lon="-8.38001489">
        <ele>45.000000</ele>
        <time>2010-01-01T00:05:50Z</time>
      </trkpt>
      <trkpt lat="37.10465050" lon="-8.37912976">
        <ele>43.000000</ele>
        <time>2010-01-01T00:06:20Z</time>
      </trkpt>
      <trkpt lat="37.10323010" lon="-8.37826609">
        <ele>39.000000</ele>
        <time>2010-01-01T00:07:23Z</time>
      </trkpt>
      <trkpt lat="37.10330710" lon="-8.37804079">
        <ele>37.000000</ele>
        <time>2010-01-01T00:07:31Z</time>
      </trkpt>
      <trkpt lat="37.10337120" lon="-8.37762236">
        <ele>38.000000</ele>
        <time>2010-01-01T00:07:45Z</time>
      </trkpt>
      <trkpt lat="37.10327280" lon="-8.37748825">
        <ele>38.000000</ele>
        <time>2010-01-01T00:07:51Z</time>
      </trkpt>
      <trkpt lat="37.10310170" lon="-8.37735950">
        <ele>38.000000</ele>
        <time>2010-01-01T00:07:59Z</time>
      </trkpt>
      <trkpt lat="37.10304610" lon="-8.37727367">
        <ele>39.000000</ele>
        <time>2010-01-01T00:08:02Z</time>
      </trkpt>
      <trkpt lat="37.10304180" lon="-8.37681233">
        <ele>40.000000</ele>
        <time>2010-01-01T00:08:17Z</time>
      </trkpt>
      <trkpt lat="37.10260110" lon="-8.37672114">
        <ele>38.000000</ele>
        <time>2010-01-01T00:08:35Z</time>
      </trkpt>
      <trkpt lat="37.10253270" lon="-8.37663531">
        <ele>37.000000</ele>
        <time>2010-01-01T00:08:39Z</time>
      </trkpt>
      <trkpt lat="37.10265680" lon="-8.37594866">
        <ele>29.000000</ele>
        <time>2010-01-01T00:09:01Z</time>
      </trkpt>
      <trkpt lat="37.10293910" lon="-8.37567508">
        <ele>30.000000</ele>
        <time>2010-01-01T00:09:15Z</time>
      </trkpt>
      <trkpt lat="37.10296910" lon="-8.37547123">
        <ele>30.000000</ele>
        <time>2010-01-01T00:09:22Z</time>
      </trkpt>
      <trkpt lat="37.10283220" lon="-8.37484896">
        <ele>31.000000</ele>
        <time>2010-01-01T00:09:43Z</time>
      </trkpt>
      <trkpt lat="37.10281080" lon="-8.37418377">
        <ele>30.000000</ele>
        <time>2010-01-01T00:10:04Z</time>
      </trkpt>
      <trkpt lat="37.10287500" lon="-8.37367951">
        <ele>28.000000</ele>
        <time>2010-01-01T00:10:20Z</time>
      </trkpt>
      <trkpt lat="37.10296910" lon="-8.37316989">
        <ele>26.000000</ele>
        <time>2010-01-01T00:10:37Z</time>
      </trkpt>
      <trkpt lat="37.10306320" lon="-8.37257981">
        <ele>23.000000</ele>
        <time>2010-01-01T00:10:56Z</time>
      </trkpt>
      <trkpt lat="37.10325150" lon="-8.37201118">
        <ele>21.000000</ele>
        <time>2010-01-01T00:11:16Z</time>
      </trkpt>
      <trkpt lat="37.10353810" lon="-8.37153375">
        <ele>17.000000</ele>
        <time>2010-01-01T00:11:35Z</time>
      </trkpt>
      <trkpt lat="37.10344400" lon="-8.37076663">
        <ele>14.000000</ele>
        <time>2010-01-01T00:12:00Z</time>
      </trkpt>
      <trkpt lat="37.10343970" lon="-8.37049305">
        <ele>12.000000</ele>
        <time>2010-01-01T00:12:08Z</time>
      </trkpt>
      <trkpt lat="37.10322150" lon="-8.36913049">
        <ele>14.000000</ele>
        <time>2010-01-01T00:12:53Z</time>
      </trkpt>
      <trkpt lat="37.10306320" lon="-8.36828827">
        <ele>25.000000</ele>
        <time>2010-01-01T00:13:20Z</time>
      </trkpt>
      <trkpt lat="37.10281510" lon="-8.36727976">
        <ele>31.000000</ele>
        <time>2010-01-01T00:13:54Z</time>
      </trkpt>
      <trkpt lat="37.10256690" lon="-8.36628198">
        <ele>19.000000</ele>
        <time>2010-01-01T00:14:27Z</time>
      </trkpt>
      <trkpt lat="37.10222890" lon="-8.36503207">
        <ele>19.000000</ele>
        <time>2010-01-01T00:15:10Z</time>
      </trkpt>
      <trkpt lat="37.10194230" lon="-8.36405575">
        <ele>18.000000</ele>
        <time>2010-01-01T00:15:43Z</time>
      </trkpt>
      <trkpt lat="37.10173260" lon="-8.36341738">
        <ele>15.000000</ele>
        <time>2010-01-01T00:16:05Z</time>
      </trkpt>
      <trkpt lat="37.10124060" lon="-8.36242496">
        <ele>19.000000</ele>
        <time>2010-01-01T00:16:42Z</time>
      </trkpt>
      <trkpt lat="37.10114220" lon="-8.36223185">
        <ele>20.000000</ele>
        <time>2010-01-01T00:16:49Z</time>
      </trkpt>
      <trkpt lat="37.10119350" lon="-8.36125552">
        <ele>15.000000</ele>
        <time>2010-01-01T00:17:21Z</time>
      </trkpt>
      <trkpt lat="37.10118920" lon="-8.36048841">
        <ele>12.000000</ele>
        <time>2010-01-01T00:17:45Z</time>
      </trkpt>
      <trkpt lat="37.10110370" lon="-8.36026847">
        <ele>11.000000</ele>
        <time>2010-01-01T00:17:53Z</time>
      </trkpt>
      <trkpt lat="37.10103520" lon="-8.35968911">
        <ele>14.000000</ele>
        <time>2010-01-01T00:18:12Z</time>
      </trkpt>
      <trkpt lat="37.10110370" lon="-8.35924386">
        <ele>16.000000</ele>
        <time>2010-01-01T00:18:26Z</time>
      </trkpt>
      <trkpt lat="37.10115930" lon="-8.35893273">
        <ele>16.000000</ele>
        <time>2010-01-01T00:18:36Z</time>
      </trkpt>
      <trkpt lat="37.10098820" lon="-8.35879325">
        <ele>14.000000</ele>
        <time>2010-01-01T00:18:45Z</time>
      </trkpt>
      <trkpt lat="37.10082130" lon="-8.35856795">
        <ele>12.000000</ele>
        <time>2010-01-01T00:18:54Z</time>
      </trkpt>
      <trkpt lat="37.10079130" lon="-8.35834801">
        <ele>12.000000</ele>
        <time>2010-01-01T00:19:01Z</time>
      </trkpt>
      <trkpt lat="37.10092830" lon="-8.35789740">
        <ele>12.000000</ele>
        <time>2010-01-01T00:19:17Z</time>
      </trkpt>
      <trkpt lat="37.10101810" lon="-8.35693717">
        <ele>20.000000</ele>
        <time>2010-01-01T00:19:48Z</time>
      </trkpt>
      <trkpt lat="37.10100100" lon="-8.35660994">
        <ele>19.000000</ele>
        <time>2010-01-01T00:19:58Z</time>
      </trkpt>
      <trkpt lat="37.10090260" lon="-8.35649192">
        <ele>16.000000</ele>
        <time>2010-01-01T00:20:04Z</time>
      </trkpt>
      <trkpt lat="37.10088550" lon="-8.35636854">
        <ele>14.000000</ele>
        <time>2010-01-01T00:20:08Z</time>
      </trkpt>
      <trkpt lat="37.10092830" lon="-8.35629343">
        <ele>13.000000</ele>
        <time>2010-01-01T00:20:11Z</time>
      </trkpt>
      <trkpt lat="37.10103520" lon="-8.35625052">
        <ele>13.000000</ele>
        <time>2010-01-01T00:20:15Z</time>
      </trkpt>
      <trkpt lat="37.10126200" lon="-8.35641145">
        <ele>14.000000</ele>
        <time>2010-01-01T00:20:26Z</time>
      </trkpt>
      <trkpt lat="37.10140320" lon="-8.35645437">
        <ele>12.000000</ele>
        <time>2010-01-01T00:20:31Z</time>
      </trkpt>
      <trkpt lat="37.10275090" lon="-8.35606276">
        <ele>9.0000000</ele>
        <time>2010-01-01T00:21:27Z</time>
      </trkpt>
      <trkpt lat="37.10353380" lon="-8.35582673">
        <ele>11.000000</ele>
        <time>2010-01-01T00:21:59Z</time>
      </trkpt>
      <trkpt lat="37.10423120" lon="-8.35562825">
        <ele>9.0000000</ele>
        <time>2010-01-01T00:22:28Z</time>
      </trkpt>
      <trkpt lat="37.10469330" lon="-8.35478067">
        <ele>9.0000000</ele>
        <time>2010-01-01T00:23:00Z</time>
      </trkpt>
      <trkpt lat="37.10505260" lon="-8.35422277">
        <ele>10.000000</ele>
        <time>2010-01-01T00:23:23Z</time>
      </trkpt>
      <trkpt lat="37.10534360" lon="-8.35390090">
        <ele>8.0000000</ele>
        <time>2010-01-01T00:23:39Z</time>
      </trkpt>
      <trkpt lat="37.10625910" lon="-8.35335373">
        <ele>10.000000</ele>
        <time>2010-01-01T00:24:19Z</time>
      </trkpt>
      <trkpt lat="37.10679820" lon="-8.35230231">
        <ele>10.000000</ele>
        <time>2010-01-01T00:24:59Z</time>
      </trkpt>
      <trkpt lat="37.10712330" lon="-8.35166931">
        <ele>7.0000000</ele>
        <time>2010-01-01T00:25:23Z</time>
      </trkpt>
      <trkpt lat="37.10743130" lon="-8.35105776">
        <ele>5.0000000</ele>
        <time>2010-01-01T00:25:46Z</time>
      </trkpt>
      <trkpt lat="37.10841530" lon="-8.34999561">
        <ele>5.0000000</ele>
        <time>2010-01-01T00:26:38Z</time>
      </trkpt>
      <trkpt lat="37.10898000" lon="-8.34952354">
        <ele>4.0000000</ele>
        <time>2010-01-01T00:27:06Z</time>
      </trkpt>
      <trkpt lat="37.11043450" lon="-8.34913730">
        <ele>7.0000000</ele>
        <time>2010-01-01T00:28:05Z</time>
      </trkpt>
      <trkpt lat="37.11118750" lon="-8.34860086">
        <ele>4.0000000</ele>
        <time>2010-01-01T00:28:40Z</time>
      </trkpt>
      <trkpt lat="37.11255640" lon="-8.34793567">
        <ele>3.0000000</ele>
        <time>2010-01-01T00:29:38Z</time>
      </trkpt>
      <trkpt lat="37.11387820" lon="-8.34728658">
        <ele>4.0000000</ele>
        <time>2010-01-01T00:30:35Z</time>
      </trkpt>
      <trkpt lat="37.11486640" lon="-8.34701299">
        <ele>3.0000000</ele>
        <time>2010-01-01T00:31:16Z</time>
      </trkpt>
      <trkpt lat="37.11511020" lon="-8.34687888">
        <ele>3.0000000</ele>
        <time>2010-01-01T00:31:26Z</time>
      </trkpt>
      <trkpt lat="37.11525570" lon="-8.34675014">
        <ele>3.0000000</ele>
        <time>2010-01-01T00:31:34Z</time>
      </trkpt>
      <trkpt lat="37.11540110" lon="-8.34653556">
        <ele>3.0000000</ele>
        <time>2010-01-01T00:31:43Z</time>
      </trkpt>
      <trkpt lat="37.11578180" lon="-8.34618151">
        <ele>4.0000000</ele>
        <time>2010-01-01T00:32:02Z</time>
      </trkpt>
      <trkpt lat="37.11621810" lon="-8.34605813">
        <ele>4.0000000</ele>
        <time>2010-01-01T00:32:19Z</time>
      </trkpt>
      <trkpt lat="37.11611980" lon="-8.34536075">
        <ele>4.0000000</ele>
        <time>2010-01-01T00:32:42Z</time>
      </trkpt>
      <trkpt lat="37.11579470" lon="-8.34374606">
        <ele>4.0000000</ele>
        <time>2010-01-01T00:33:35Z</time>
      </trkpt>
      <trkpt lat="37.11561070" lon="-8.34285020">
        <ele>3.0000000</ele>
        <time>2010-01-01T00:34:05Z</time>
      </trkpt>
      <trkpt lat="37.11541390" lon="-8.34190607">
        <ele>5.0000000</ele>
        <time>2010-01-01T00:34:36Z</time>
      </trkpt>
      <trkpt lat="37.11533270" lon="-8.34170758">
        <ele>5.0000000</ele>
        <time>2010-01-01T00:34:43Z</time>
      </trkpt>
      <trkpt lat="37.11523860" lon="-8.34168612">
        <ele>6.0000000</ele>
        <time>2010-01-01T00:34:47Z</time>
      </trkpt>
      <trkpt lat="37.11515300" lon="-8.34154665">
        <ele>6.0000000</ele>
        <time>2010-01-01T00:34:52Z</time>
      </trkpt>
      <trkpt lat="37.11517870" lon="-8.34136426">
        <ele>7.0000000</ele>
        <time>2010-01-01T00:34:58Z</time>
      </trkpt>
      <trkpt lat="37.11521720" lon="-8.34120333">
        <ele>7.0000000</ele>
        <time>2010-01-01T00:35:04Z</time>
      </trkpt>
      <trkpt lat="37.11514020" lon="-8.34102094">
        <ele>7.0000000</ele>
        <time>2010-01-01T00:35:10Z</time>
      </trkpt>
      <trkpt lat="37.11471240" lon="-8.34054887">
        <ele>4.0000000</ele>
        <time>2010-01-01T00:35:33Z</time>
      </trkpt>
      <trkpt lat="37.11430600" lon="-8.34077417">
        <ele>4.0000000</ele>
        <time>2010-01-01T00:35:51Z</time>
      </trkpt>
      <trkpt lat="37.11403220" lon="-8.34086537">
        <ele>4.0000000</ele>
        <time>2010-01-01T00:36:02Z</time>
      </trkpt>
      <trkpt lat="37.11304410" lon="-8.34066689">
        <ele>4.0000000</ele>
        <time>2010-01-01T00:36:42Z</time>
      </trkpt>
      <trkpt lat="37.11253930" lon="-8.34060788">
        <ele>4.0000000</ele>
        <time>2010-01-01T00:37:03Z</time>
      </trkpt>
      <trkpt lat="37.11184630" lon="-8.34058642">
        <ele>2.0000000</ele>
        <time>2010-01-01T00:37:30Z</time>
      </trkpt>
      <trkpt lat="37.11142700" lon="-8.34064543">
        <ele>2.0000000</ele>
        <time>2010-01-01T00:37:47Z</time>
      </trkpt>
      <trkpt lat="37.11087520" lon="-8.34092438">
        <ele>2.0000000</ele>
        <time>2010-01-01T00:38:11Z</time>
      </trkpt>
      <trkpt lat="37.11066980" lon="-8.34099411">
        <ele>2.0000000</ele>
        <time>2010-01-01T00:38:20Z</time>
      </trkpt>
      <trkpt lat="37.11037460" lon="-8.34089756">
        <ele>2.0000000</ele>
        <time>2010-01-01T00:38:32Z</time>
      </trkpt>
      <trkpt lat="37.10992970" lon="-8.34072589">
        <ele>3.0000000</ele>
        <time>2010-01-01T00:38:50Z</time>
      </trkpt>
      <trkpt lat="37.10947200" lon="-8.34051668">
        <ele>5.0000000</ele>
        <time>2010-01-01T00:39:10Z</time>
      </trkpt>
      <trkpt lat="37.10853080" lon="-8.34007143">
        <ele>6.0000000</ele>
        <time>2010-01-01T00:39:50Z</time>
      </trkpt>
      <trkpt lat="37.10784630" lon="-8.33981931">
        <ele>7.0000000</ele>
        <time>2010-01-01T00:40:19Z</time>
      </trkpt>
      <trkpt lat="37.10739710" lon="-8.33966374">
        <ele>8.0000000</ele>
        <time>2010-01-01T00:40:37Z</time>
      </trkpt>
      <trkpt lat="37.10672110" lon="-8.33945989">
        <ele>11.000000</ele>
        <time>2010-01-01T00:41:05Z</time>
      </trkpt>
      <trkpt lat="37.10544200" lon="-8.33909511">
        <ele>15.000000</ele>
        <time>2010-01-01T00:41:58Z</time>
      </trkpt>
      <trkpt lat="37.10453920" lon="-8.33871424">
        <ele>12.000000</ele>
        <time>2010-01-01T00:42:36Z</time>
      </trkpt>
      <trkpt lat="37.10402580" lon="-8.33847820">
        <ele>12.000000</ele>
        <time>2010-01-01T00:42:58Z</time>
      </trkpt>
      <trkpt lat="37.10358940" lon="-8.33823144">
        <ele>13.000000</ele>
        <time>2010-01-01T00:43:17Z</time>
      </trkpt>
      <trkpt lat="37.10300760" lon="-8.33793640">
        <ele>11.000000</ele>
        <time>2010-01-01T00:43:42Z</time>
      </trkpt>
      <trkpt lat="37.10228880" lon="-8.33763062">
        <ele>10.000000</ele>
        <time>2010-01-01T00:44:12Z</time>
      </trkpt>
      <trkpt lat="37.10176680" lon="-8.33749115">
        <ele>12.000000</ele>
        <time>2010-01-01T00:44:34Z</time>
      </trkpt>
      <trkpt lat="37.10161280" lon="-8.33738386">
        <ele>11.000000</ele>
        <time>2010-01-01T00:44:41Z</time>
      </trkpt>
      <trkpt lat="37.10122770" lon="-8.33737850">
        <ele>10.000000</ele>
        <time>2010-01-01T00:44:56Z</time>
      </trkpt>
      <trkpt lat="37.10041910" lon="-8.33716928">
        <ele>8.0000000</ele>
        <time>2010-01-01T00:45:29Z</time>
      </trkpt>
      <trkpt lat="37.10011530" lon="-8.33713710">
        <ele>8.0000000</ele>
        <time>2010-01-01T00:45:42Z</time>
      </trkpt>
      <trkpt lat="37.09949490" lon="-8.33695471">
        <ele>9.0000000</ele>
        <time>2010-01-01T00:46:07Z</time>
      </trkpt>
      <trkpt lat="37.09902000" lon="-8.33685278">
        <ele>7.0000000</ele>
        <time>2010-01-01T00:46:26Z</time>
      </trkpt>
      <trkpt lat="37.09838250" lon="-8.33673477">
        <ele>6.0000000</ele>
        <time>2010-01-01T00:46:52Z</time>
      </trkpt>
      <trkpt lat="37.09770650" lon="-8.33657920">
        <ele>6.0000000</ele>
        <time>2010-01-01T00:47:20Z</time>
      </trkpt>
      <trkpt lat="37.09717160" lon="-8.33649873">
        <ele>5.0000000</ele>
        <time>2010-01-01T00:47:41Z</time>
      </trkpt>
      <trkpt lat="37.09627740" lon="-8.33646655">
        <ele>5.0000000</ele>
        <time>2010-01-01T00:48:17Z</time>
      </trkpt>
      <trkpt lat="37.09554570" lon="-8.33655238">
        <ele>8.0000000</ele>
        <time>2010-01-01T00:48:46Z</time>
      </trkpt>
      <trkpt lat="37.09509640" lon="-8.33571016">
        <ele>6.0000000</ele>
        <time>2010-01-01T00:49:19Z</time>
      </trkpt>
      <trkpt lat="37.09501080" lon="-8.33538830">
        <ele>5.0000000</ele>
        <time>2010-01-01T00:49:30Z</time>
      </trkpt>
      <trkpt lat="37.09456150" lon="-8.33456754">
        <ele>4.0000000</ele>
        <time>2010-01-01T00:50:01Z</time>
      </trkpt>
      <trkpt lat="37.09414220" lon="-8.33404719">
        <ele>4.0000000</ele>
        <time>2010-01-01T00:50:25Z</time>
      </trkpt>
      <trkpt lat="37.09385550" lon="-8.33356976">
        <ele>5.0000000</ele>
        <time>2010-01-01T00:50:44Z</time>
      </trkpt>
      <trkpt lat="37.09293560" lon="-8.33176195">
        <ele>4.0000000</ele>
        <time>2010-01-01T00:51:53Z</time>
      </trkpt>
      <trkpt lat="37.09231510" lon="-8.33060324">
        <ele>3.0000000</ele>
        <time>2010-01-01T00:52:37Z</time>
      </trkpt>
      <trkpt lat="37.09178450" lon="-8.33021163">
        <ele>3.0000000</ele>
        <time>2010-01-01T00:53:02Z</time>
      </trkpt>
      <trkpt lat="37.09150640" lon="-8.32954108">
        <ele>3.0000000</ele>
        <time>2010-01-01T00:53:26Z</time>
      </trkpt>
      <trkpt lat="37.09113840" lon="-8.32924067">
        <ele>4.0000000</ele>
        <time>2010-01-01T00:53:44Z</time>
      </trkpt>
      <trkpt lat="37.09086880" lon="-8.32917094">
        <ele>4.0000000</ele>
        <time>2010-01-01T00:53:55Z</time>
      </trkpt>
      <trkpt lat="37.09044090" lon="-8.32942306">
        <ele>3.0000000</ele>
        <time>2010-01-01T00:54:13Z</time>
      </trkpt>
      <trkpt lat="37.08994450" lon="-8.32851111">
        <ele>4.0000000</ele>
        <time>2010-01-01T00:54:49Z</time>
      </trkpt>
      <trkpt lat="37.08984180" lon="-8.32845211">
        <ele>4.0000000</ele>
        <time>2010-01-01T00:54:53Z</time>
      </trkpt>
      <trkpt lat="37.08961930" lon="-8.32812488">
        <ele>5.0000000</ele>
        <time>2010-01-01T00:55:07Z</time>
      </trkpt>
      <trkpt lat="37.08965350" lon="-8.32784056">
        <ele>4.0000000</ele>
        <time>2010-01-01T00:55:16Z</time>
      </trkpt>
      <trkpt lat="37.09023980" lon="-8.32720756">
        <ele>3.0000000</ele>
        <time>2010-01-01T00:55:47Z</time>
      </trkpt>
      <trkpt lat="37.09048370" lon="-8.32676231">
        <ele>4.0000000</ele>
        <time>2010-01-01T00:56:04Z</time>
      </trkpt>
      <trkpt lat="37.09050510" lon="-8.32653164">
        <ele>4.0000000</ele>
        <time>2010-01-01T00:56:12Z</time>
      </trkpt>
      <trkpt lat="37.09067190" lon="-8.32642436">
        <ele>4.0000000</ele>
        <time>2010-01-01T00:56:19Z</time>
      </trkpt>
      <trkpt lat="37.09080890" lon="-8.32605421">
        <ele>4.0000000</ele>
        <time>2010-01-01T00:56:32Z</time>
      </trkpt>
      <trkpt lat="37.09092010" lon="-8.32556068">
        <ele>5.0000000</ele>
        <time>2010-01-01T00:56:49Z</time>
      </trkpt>
      <trkpt lat="37.09093300" lon="-8.32498133">
        <ele>5.0000000</ele>
        <time>2010-01-01T00:57:07Z</time>
      </trkpt>
      <trkpt lat="37.09083030" lon="-8.32421958">
        <ele>4.0000000</ele>
        <time>2010-01-01T00:57:32Z</time>
      </trkpt>
      <trkpt lat="37.09056920" lon="-8.32362949">
        <ele>5.0000000</ele>
        <time>2010-01-01T00:57:53Z</time>
      </trkpt>
      <trkpt lat="37.09029110" lon="-8.32317352">
        <ele>5.0000000</ele>
        <time>2010-01-01T00:58:12Z</time>
      </trkpt>
      <trkpt lat="37.09012850" lon="-8.32309305">
        <ele>5.0000000</ele>
        <time>2010-01-01T00:58:19Z</time>
      </trkpt>
      <trkpt lat="37.09004720" lon="-8.32305550">
        <ele>5.0000000</ele>
        <time>2010-01-01T00:58:22Z</time>
      </trkpt>
      <trkpt lat="37.08998300" lon="-8.32287847">
        <ele>5.0000000</ele>
        <time>2010-01-01T00:58:28Z</time>
      </trkpt>
      <trkpt lat="37.08960640" lon="-8.32266390">
        <ele>4.0000000</ele>
        <time>2010-01-01T00:58:45Z</time>
      </trkpt>
      <trkpt lat="37.08954230" lon="-8.32293748">
        <ele>5.0000000</ele>
        <time>2010-01-01T00:58:54Z</time>
      </trkpt>
      <trkpt lat="37.08930690" lon="-8.32349002">
        <ele>6.0000000</ele>
        <time>2010-01-01T00:59:14Z</time>
      </trkpt>
      <trkpt lat="37.08939680" lon="-8.32356512">
        <ele>6.0000000</ele>
        <time>2010-01-01T00:59:18Z</time>
      </trkpt>
      <trkpt lat="37.08911860" lon="-8.32425713">
        <ele>8.0000000</ele>
        <time>2010-01-01T00:59:43Z</time>
      </trkpt>
      <trkpt lat="37.08893460" lon="-8.32467019">
        <ele>7.0000000</ele>
        <time>2010-01-01T00:59:58Z</time>
      </trkpt>
      <trkpt lat="37.08860940" lon="-8.32511007">
        <ele>7.0000000</ele>
        <time>2010-01-01T01:00:17Z</time>
      </trkpt>
      <trkpt lat="37.08823710" lon="-8.32529783">
        <ele>8.0000000</ele>
        <time>2010-01-01T01:00:33Z</time>
      </trkpt>
      <trkpt lat="37.08774070" lon="-8.32550704">
        <ele>10.000000</ele>
        <time>2010-01-01T01:00:54Z</time>
      </trkpt>
      <trkpt lat="37.08733850" lon="-8.32468628">
        <ele>12.000000</ele>
        <time>2010-01-01T01:01:25Z</time>
      </trkpt>
      <trkpt lat="37.08649540" lon="-8.32346320">
        <ele>9.0000000</ele>
        <time>2010-01-01T01:02:17Z</time>
      </trkpt>
      <trkpt lat="37.08554110" lon="-8.32219183">
        <ele>12.000000</ele>
        <time>2010-01-01T01:03:13Z</time>
      </trkpt>
      <trkpt lat="37.08530150" lon="-8.32181632">
        <ele>12.000000</ele>
        <time>2010-01-01T01:03:28Z</time>
      </trkpt>
      <trkpt lat="37.08526720" lon="-8.32153201">
        <ele>11.000000</ele>
        <time>2010-01-01T01:03:37Z</time>
      </trkpt>
      <trkpt lat="37.08537420" lon="-8.32114577">
        <ele>10.000000</ele>
        <time>2010-01-01T01:03:50Z</time>
      </trkpt>
      <trkpt lat="37.08548550" lon="-8.32064688">
        <ele>10.000000</ele>
        <time>2010-01-01T01:04:07Z</time>
      </trkpt>
      <trkpt lat="37.08544270" lon="-8.32045912">
        <ele>11.000000</ele>
        <time>2010-01-01T01:04:13Z</time>
      </trkpt>
      <trkpt lat="37.08521160" lon="-8.32027673">
        <ele>13.000000</ele>
        <time>2010-01-01T01:04:24Z</time>
      </trkpt>
      <trkpt lat="37.08509180" lon="-8.32018554">
        <ele>14.000000</ele>
        <time>2010-01-01T01:04:29Z</time>
      </trkpt>
      <trkpt lat="37.08497620" lon="-8.32001388">
        <ele>14.000000</ele>
        <time>2010-01-01T01:04:37Z</time>
      </trkpt>
      <trkpt lat="37.08467240" lon="-8.31857621">
        <ele>20.000000</ele>
        <time>2010-01-01T01:05:24Z</time>
      </trkpt>
      <trkpt lat="37.08475800" lon="-8.31828653">
        <ele>22.000000</ele>
        <time>2010-01-01T01:05:34Z</time>
      </trkpt>
      <trkpt lat="37.08497200" lon="-8.31790030">
        <ele>23.000000</ele>
        <time>2010-01-01T01:05:49Z</time>
      </trkpt>
      <trkpt lat="37.08460820" lon="-8.31769108">
        <ele>22.000000</ele>
        <time>2010-01-01T01:06:05Z</time>
      </trkpt>
      <trkpt lat="37.08446700" lon="-8.31730484">
        <ele>27.000000</ele>
        <time>2010-01-01T01:06:19Z</time>
      </trkpt>
      <trkpt lat="37.08543840" lon="-8.31688642">
        <ele>28.000000</ele>
        <time>2010-01-01T01:07:00Z</time>
      </trkpt>
      <trkpt lat="37.08557540" lon="-8.31656455">
        <ele>29.000000</ele>
        <time>2010-01-01T01:07:11Z</time>
      </trkpt>
      <trkpt lat="37.08526720" lon="-8.31599593">
        <ele>30.000000</ele>
        <time>2010-01-01T01:07:33Z</time>
      </trkpt>
      <trkpt lat="37.08492490" lon="-8.31490159">
        <ele>30.000000</ele>
        <time>2010-01-01T01:08:11Z</time>
      </trkpt>
      <trkpt lat="37.08424870" lon="-8.31308841">
        <ele>29.000000</ele>
        <time>2010-01-01T01:09:15Z</time>
      </trkpt>
      <trkpt lat="37.08335860" lon="-8.31058859">
        <ele>30.000000</ele>
        <time>2010-01-01T01:10:42Z</time>
      </trkpt>
      <trkpt lat="37.08315320" lon="-8.31024527">
        <ele>30.000000</ele>
        <time>2010-01-01T01:10:56Z</time>
      </trkpt>
      <trkpt lat="37.08187790" lon="-8.30832481">
        <ele>31.000000</ele>
        <time>2010-01-01T01:12:16Z</time>
      </trkpt>
      <trkpt lat="37.08109040" lon="-8.30762743">
        <ele>33.000000</ele>
        <time>2010-01-01T01:12:54Z</time>
      </trkpt>
      <trkpt lat="37.08038000" lon="-8.30700516">
        <ele>33.000000</ele>
        <time>2010-01-01T01:13:29Z</time>
      </trkpt>
      <trkpt lat="37.08008900" lon="-8.30682277">
        <ele>32.000000</ele>
        <time>2010-01-01T01:13:42Z</time>
      </trkpt>
      <trkpt lat="37.07996920" lon="-8.30583572">
        <ele>35.000000</ele>
        <time>2010-01-01T01:14:14Z</time>
      </trkpt>
      <trkpt lat="37.07991780" lon="-8.30491304">
        <ele>35.000000</ele>
        <time>2010-01-01T01:14:43Z</time>
      </trkpt>
      <trkpt lat="37.08005480" lon="-8.30340027">
        <ele>39.000000</ele>
        <time>2010-01-01T01:15:32Z</time>
      </trkpt>
      <trkpt lat="37.08005480" lon="-8.30242395">
        <ele>40.000000</ele>
        <time>2010-01-01T01:16:03Z</time>
      </trkpt>
      <trkpt lat="37.07937000" lon="-8.29985976">
        <ele>52.000000</ele>
        <time>2010-01-01T01:17:30Z</time>
      </trkpt>
      <trkpt lat="37.07937860" lon="-8.29902291">
        <ele>53.000000</ele>
        <time>2010-01-01T01:17:56Z</time>
      </trkpt>
      <trkpt lat="37.07946420" lon="-8.29826116">
        <ele>52.000000</ele>
        <time>2010-01-01T01:18:21Z</time>
      </trkpt>
      <trkpt lat="37.08011470" lon="-8.29641580">
        <ele>53.000000</ele>
        <time>2010-01-01T01:19:25Z</time>
      </trkpt>
      <trkpt lat="37.08082510" lon="-8.29449534">
        <ele>45.000000</ele>
        <time>2010-01-01T01:20:33Z</time>
      </trkpt>
      <trkpt lat="37.08043140" lon="-8.29243540">
        <ele>38.000000</ele>
        <time>2010-01-01T01:21:41Z</time>
      </trkpt>
      <trkpt lat="37.08042280" lon="-8.29183459">
        <ele>40.000000</ele>
        <time>2010-01-01T01:22:00Z</time>
      </trkpt>
      <trkpt lat="37.08021740" lon="-8.29087972">
        <ele>44.000000</ele>
        <time>2010-01-01T01:22:31Z</time>
      </trkpt>
      <trkpt lat="37.08029440" lon="-8.28992486">
        <ele>45.000000</ele>
        <time>2010-01-01T01:23:02Z</time>
      </trkpt>
      <trkpt lat="37.08027730" lon="-8.28883051">
        <ele>49.000000</ele>
        <time>2010-01-01T01:23:37Z</time>
      </trkpt>
      <trkpt lat="37.08055980" lon="-8.28699588">
        <ele>43.000000</ele>
        <time>2010-01-01T01:24:37Z</time>
      </trkpt>
      <trkpt lat="37.08049980" lon="-8.28584790">
        <ele>45.000000</ele>
        <time>2010-01-01T01:25:13Z</time>
      </trkpt>
      <trkpt lat="37.08058540" lon="-8.28511834">
        <ele>48.000000</ele>
        <time>2010-01-01T01:25:37Z</time>
      </trkpt>
      <trkpt lat="37.08087640" lon="-8.28422784">
        <ele>47.000000</ele>
        <time>2010-01-01T01:26:08Z</time>
      </trkpt>
      <trkpt lat="37.08063680" lon="-8.28329443">
        <ele>43.000000</ele>
        <time>2010-01-01T01:26:39Z</time>
      </trkpt>
      <trkpt lat="37.08052550" lon="-8.28187823">
        <ele>38.000000</ele>
        <time>2010-01-01T01:27:24Z</time>
      </trkpt>
      <trkpt lat="37.08090210" lon="-8.28034400">
        <ele>44.000000</ele>
        <time>2010-01-01T01:28:16Z</time>
      </trkpt>
      <trkpt lat="37.08095350" lon="-8.27968955">
        <ele>47.000000</ele>
        <time>2010-01-01T01:28:37Z</time>
      </trkpt>
      <trkpt lat="37.08085930" lon="-8.27947497">
        <ele>48.000000</ele>
        <time>2010-01-01T01:28:45Z</time>
      </trkpt>
      <trkpt lat="37.08073950" lon="-8.27942132">
        <ele>48.000000</ele>
        <time>2010-01-01T01:28:50Z</time>
      </trkpt>
      <trkpt lat="37.08000340" lon="-8.27966809">
        <ele>43.000000</ele>
        <time>2010-01-01T01:29:20Z</time>
      </trkpt>
      <trkpt lat="37.08000340" lon="-8.27889561">
        <ele>45.000000</ele>
        <time>2010-01-01T01:29:45Z</time>
      </trkpt>
      <trkpt lat="37.08032870" lon="-8.27817678">
        <ele>46.000000</ele>
        <time>2010-01-01T01:30:11Z</time>
      </trkpt>
      <trkpt lat="37.08005480" lon="-8.27795147">
        <ele>46.000000</ele>
        <time>2010-01-01T01:30:24Z</time>
      </trkpt>
      <trkpt lat="37.07973810" lon="-8.27672839">
        <ele>45.000000</ele>
        <time>2010-01-01T01:31:05Z</time>
      </trkpt>
      <trkpt lat="37.07958400" lon="-8.27546238">
        <ele>41.000000</ele>
        <time>2010-01-01T01:31:46Z</time>
      </trkpt>
      <trkpt lat="37.07977230" lon="-8.27476501">
        <ele>45.000000</ele>
        <time>2010-01-01T01:32:10Z</time>
      </trkpt>
      <trkpt lat="37.07980650" lon="-8.27354192">
        <ele>45.000000</ele>
        <time>2010-01-01T01:32:49Z</time>
      </trkpt>
      <trkpt lat="37.07990070" lon="-8.27190041">
        <ele>47.000000</ele>
        <time>2010-01-01T01:33:41Z</time>
      </trkpt>
      <trkpt lat="37.08014030" lon="-8.27064514">
        <ele>48.000000</ele>
        <time>2010-01-01T01:34:23Z</time>
      </trkpt>
      <trkpt lat="37.08019170" lon="-8.26979756">
        <ele>48.000000</ele>
        <time>2010-01-01T01:34:50Z</time>
      </trkpt>
      <trkpt lat="37.08041420" lon="-8.26910018">
        <ele>43.000000</ele>
        <time>2010-01-01T01:35:14Z</time>
      </trkpt>
      <trkpt lat="37.08035430" lon="-8.26838135">
        <ele>46.000000</ele>
        <time>2010-01-01T01:35:37Z</time>
      </trkpt>
      <trkpt lat="37.08072240" lon="-8.26923966">
        <ele>40.000000</ele>
        <time>2010-01-01T01:36:08Z</time>
      </trkpt>
      <trkpt lat="37.08091920" lon="-8.26987266">
        <ele>38.000000</ele>
        <time>2010-01-01T01:36:30Z</time>
      </trkpt>
      <trkpt lat="37.08141570" lon="-8.27095627">
        <ele>29.000000</ele>
        <time>2010-01-01T01:37:10Z</time>
      </trkpt>
      <trkpt lat="37.08167250" lon="-8.27136397">
        <ele>24.000000</ele>
        <time>2010-01-01T01:37:26Z</time>
      </trkpt>
      <trkpt lat="37.08202340" lon="-8.27138543">
        <ele>19.000000</ele>
        <time>2010-01-01T01:37:40Z</time>
      </trkpt>
      <trkpt lat="37.08340140" lon="-8.27104210">
        <ele>9.0000000</ele>
        <time>2010-01-01T01:38:36Z</time>
      </trkpt>
      <trkpt lat="37.08346990" lon="-8.26978683">
        <ele>5.0000000</ele>
        <time>2010-01-01T01:39:17Z</time>
      </trkpt>
      <trkpt lat="37.08322170" lon="-8.26930403">
        <ele>7.0000000</ele>
        <time>2010-01-01T01:39:35Z</time>
      </trkpt>
      <trkpt lat="37.08338430" lon="-8.26925039">
        <ele>7.0000000</ele>
        <time>2010-01-01T01:39:42Z</time>
      </trkpt>
      <trkpt lat="37.08497620" lon="-8.26914310">
        <ele>9.0000000</ele>
        <time>2010-01-01T01:40:46Z</time>
      </trkpt>
      <trkpt lat="37.08493350" lon="-8.26596736">
        <ele>10.000000</ele>
        <time>2010-01-01T01:42:27Z</time>
      </trkpt>
      <trkpt lat="37.08467670" lon="-8.26583862">
        <ele>10.000000</ele>
        <time>2010-01-01T01:42:38Z</time>
      </trkpt>
      <trkpt lat="37.08416320" lon="-8.26576352">
        <ele>9.0000000</ele>
        <time>2010-01-01T01:42:59Z</time>
      </trkpt>
      <trkpt lat="37.08407760" lon="-8.26558113">
        <ele>9.0000000</ele>
        <time>2010-01-01T01:43:05Z</time>
      </trkpt>
      <trkpt lat="37.08404330" lon="-8.26426148">
        <ele>10.000000</ele>
        <time>2010-01-01T01:43:48Z</time>
      </trkpt>
      <trkpt lat="37.08401340" lon="-8.26342463">
        <ele>11.000000</ele>
        <time>2010-01-01T01:44:14Z</time>
      </trkpt>
      <trkpt lat="37.08332440" lon="-8.26341390">
        <ele>10.000000</ele>
        <time>2010-01-01T01:44:42Z</time>
      </trkpt>
      <trkpt lat="37.08317030" lon="-8.26283454">
        <ele>13.000000</ele>
        <time>2010-01-01T01:45:01Z</time>
      </trkpt>
      <trkpt lat="37.08313610" lon="-8.26258778">
        <ele>14.000000</ele>
        <time>2010-01-01T01:45:09Z</time>
      </trkpt>
      <trkpt lat="37.08314040" lon="-8.26246440">
        <ele>15.000000</ele>
        <time>2010-01-01T01:45:13Z</time>
      </trkpt>
      <trkpt lat="37.08408610" lon="-8.26242685">
        <ele>16.000000</ele>
        <time>2010-01-01T01:45:51Z</time>
      </trkpt>
      <trkpt lat="37.08406040" lon="-8.26225519">
        <ele>18.000000</ele>
        <time>2010-01-01T01:45:57Z</time>
      </trkpt>
      <trkpt lat="37.08352980" lon="-8.26218008">
        <ele>18.000000</ele>
        <time>2010-01-01T01:46:18Z</time>
      </trkpt>
      <trkpt lat="37.08334150" lon="-8.26216936">
        <ele>18.000000</ele>
        <time>2010-01-01T01:46:26Z</time>
      </trkpt>
      <trkpt lat="37.08322590" lon="-8.26211035">
        <ele>18.000000</ele>
        <time>2010-01-01T01:46:31Z</time>
      </trkpt>
      <trkpt lat="37.08313610" lon="-8.26201915">
        <ele>18.000000</ele>
        <time>2010-01-01T01:46:35Z</time>
      </trkpt>
      <trkpt lat="37.08301200" lon="-8.26152563">
        <ele>19.000000</ele>
        <time>2010-01-01T01:46:52Z</time>
      </trkpt>
      <trkpt lat="37.08294780" lon="-8.26115548">
        <ele>16.000000</ele>
        <time>2010-01-01T01:47:04Z</time>
      </trkpt>
      <trkpt lat="37.08305900" lon="-8.26103210">
        <ele>18.000000</ele>
        <time>2010-01-01T01:47:10Z</time>
      </trkpt>
      <trkpt lat="37.08313610" lon="-8.26067268">
        <ele>16.000000</ele>
        <time>2010-01-01T01:47:22Z</time>
      </trkpt>
      <trkpt lat="37.08351690" lon="-8.25969099">
        <ele>25.000000</ele>
        <time>2010-01-01T01:47:57Z</time>
      </trkpt>
      <trkpt lat="37.08358110" lon="-8.25921893">
        <ele>30.000000</ele>
        <time>2010-01-01T01:48:12Z</time>
      </trkpt>
      <trkpt lat="37.08358970" lon="-8.25899899">
        <ele>29.000000</ele>
        <time>2010-01-01T01:48:19Z</time>
      </trkpt>
      <trkpt lat="37.08372240" lon="-8.25870394">
        <ele>30.000000</ele>
        <time>2010-01-01T01:48:30Z</time>
      </trkpt>
      <trkpt lat="37.08391920" lon="-8.25841426">
        <ele>33.000000</ele>
        <time>2010-01-01T01:48:42Z</time>
      </trkpt>
      <trkpt lat="37.08423590" lon="-8.25801730">
        <ele>34.000000</ele>
        <time>2010-01-01T01:49:00Z</time>
      </trkpt>
      <trkpt lat="37.08418450" lon="-8.25705170">
        <ele>22.000000</ele>
        <time>2010-01-01T01:49:31Z</time>
      </trkpt>
      <trkpt lat="37.08477080" lon="-8.25647771">
        <ele>26.000000</ele>
        <time>2010-01-01T01:50:01Z</time>
      </trkpt>
      <trkpt lat="37.08522450" lon="-8.25613975">
        <ele>32.000000</ele>
        <time>2010-01-01T01:50:22Z</time>
      </trkpt>
      <trkpt lat="37.08609740" lon="-8.25564622">
        <ele>35.000000</ele>
        <time>2010-01-01T01:51:00Z</time>
      </trkpt>
      <trkpt lat="37.08626010" lon="-8.25552284">
        <ele>36.000000</ele>
        <time>2010-01-01T01:51:08Z</time>
      </trkpt>
      <trkpt lat="37.08680350" lon="-8.25468599">
        <ele>26.000000</ele>
        <time>2010-01-01T01:51:42Z</time>
      </trkpt>
      <trkpt lat="37.08702180" lon="-8.25365066">
        <ele>22.000000</ele>
        <time>2010-01-01T01:52:16Z</time>
      </trkpt>
      <trkpt lat="37.08705170" lon="-8.25326442">
        <ele>21.000000</ele>
        <time>2010-01-01T01:52:29Z</time>
      </trkpt>
      <trkpt lat="37.08738550" lon="-8.25338244">
        <ele>21.000000</ele>
        <time>2010-01-01T01:52:43Z</time>
      </trkpt>
      <trkpt lat="37.08747970" lon="-8.25309276">
        <ele>21.000000</ele>
        <time>2010-01-01T01:52:53Z</time>
      </trkpt>
      <trkpt lat="37.08776210" lon="-8.25317323">
        <ele>20.000000</ele>
        <time>2010-01-01T01:53:04Z</time>
      </trkpt>
      <trkpt lat="37.08784340" lon="-8.25281918">
        <ele>18.000000</ele>
        <time>2010-01-01T01:53:16Z</time>
      </trkpt>
      <trkpt lat="37.08801890" lon="-8.25277090">
        <ele>15.000000</ele>
        <time>2010-01-01T01:53:23Z</time>
      </trkpt>
      <trkpt lat="37.08841680" lon="-8.25300157">
        <ele>11.000000</ele>
        <time>2010-01-01T01:53:41Z</time>
      </trkpt>
      <trkpt lat="37.08872920" lon="-8.25220227">
        <ele>11.000000</ele>
        <time>2010-01-01T01:54:09Z</time>
      </trkpt>
      <trkpt lat="37.08897310" lon="-8.25200915">
        <ele>11.000000</ele>
        <time>2010-01-01T01:54:21Z</time>
      </trkpt>
      <trkpt lat="37.08848100" lon="-8.25104355">
        <ele>14.000000</ele>
        <time>2010-01-01T01:54:57Z</time>
      </trkpt>
      <trkpt lat="37.08882330" lon="-8.25075387">
        <ele>17.000000</ele>
        <time>2010-01-01T01:55:14Z</time>
      </trkpt>
      <trkpt lat="37.08878480" lon="-8.25051784">
        <ele>16.000000</ele>
        <time>2010-01-01T01:55:21Z</time>
      </trkpt>
      <trkpt lat="37.08909290" lon="-8.25028181">
        <ele>19.000000</ele>
        <time>2010-01-01T01:55:36Z</time>
      </trkpt>
      <trkpt lat="37.08982040" lon="-8.25018525">
        <ele>27.000000</ele>
        <time>2010-01-01T01:56:05Z</time>
      </trkpt>
      <trkpt lat="37.09036810" lon="-8.24992775">
        <ele>31.000000</ele>
        <time>2010-01-01T01:56:29Z</time>
      </trkpt>
      <trkpt lat="37.09083030" lon="-8.24928402">
        <ele>33.000000</ele>
        <time>2010-01-01T01:56:56Z</time>
      </trkpt>
      <trkpt lat="37.09092440" lon="-8.24897825">
        <ele>36.000000</ele>
        <time>2010-01-01T01:57:07Z</time>
      </trkpt>
      <trkpt lat="37.09086450" lon="-8.24831843">
        <ele>41.000000</ele>
        <time>2010-01-01T01:57:28Z</time>
      </trkpt>
      <trkpt lat="37.09068480" lon="-8.24714899">
        <ele>43.000000</ele>
        <time>2010-01-01T01:58:06Z</time>
      </trkpt>
      <trkpt lat="37.09065910" lon="-8.24629604">
        <ele>42.000000</ele>
        <time>2010-01-01T01:58:33Z</time>
      </trkpt>
      <trkpt lat="37.09060000" lon="-8.24623000">
        <ele>42.000000</ele>
        <time>2010-01-01T01:58:36Z</time>
      </trkpt>
      <trkpt lat="37.09023000" lon="-8.24649000">
        <ele>45.000000</ele>
        <time>2010-01-01T01:58:53Z</time>
      </trkpt>
      <trkpt lat="37.09011000" lon="-8.24656000">
        <ele>45.000000</ele>
        <time>2010-01-01T01:58:59Z</time>
      </trkpt>
      <trkpt lat="37.08988000" lon="-8.24665000">
        <ele>45.000000</ele>
        <time>2010-01-01T01:59:08Z</time>
      </trkpt>
      <trkpt lat="37.08987000" lon="-8.24665000">
        <ele>45.000000</ele>
        <time>2010-01-01T01:59:09Z</time>
      </trkpt>
      <trkpt lat="37.08983000" lon="-8.24651000">
        <ele>45.000000</ele>
        <time>2010-01-01T01:59:13Z</time>
      </trkpt>
      <trkpt lat="37.08975000" lon="-8.24613000">
        <ele>47.000000</ele>
        <time>2010-01-01T01:59:26Z</time>
      </trkpt>
      <trkpt lat="37.08971000" lon="-8.24576000">
        <ele>46.000000</ele>
        <time>2010-01-01T01:59:38Z</time>
      </trkpt>
      <trkpt lat="37.08972000" lon="-8.24559000">
        <ele>46.000000</ele>
        <time>2010-01-01T01:59:43Z</time>
      </trkpt>
      <trkpt lat="37.08976000" lon="-8.24540000">
        <ele>45.000000</ele>
        <time>2010-01-01T01:59:50Z</time>
      </trkpt>
      <trkpt lat="37.08988000" lon="-8.24507000">
        <ele>44.000000</ele>
        <time>2010-01-01T02:00:01Z</time>
      </trkpt>
      <trkpt lat="37.08999000" lon="-8.24491000">
        <ele>44.000000</ele>
        <time>2010-01-01T02:00:08Z</time>
      </trkpt>
      <trkpt lat="37.09005150" lon="-8.24479937">
        <ele>44.000000</ele>
        <time>2010-01-01T02:00:12Z</time>
      </trkpt>
      <trkpt lat="37.08949520" lon="-8.24387669">
        <ele>41.000000</ele>
        <time>2010-01-01T02:00:49Z</time>
      </trkpt>
      <trkpt lat="37.08932400" lon="-8.24379086">
        <ele>40.000000</ele>
        <time>2010-01-01T02:00:57Z</time>
      </trkpt>
      <trkpt lat="37.08820290" lon="-8.24423074">
        <ele>41.000000</ele>
        <time>2010-01-01T02:01:44Z</time>
      </trkpt>
      <trkpt lat="37.08799750" lon="-8.24459552">
        <ele>40.000000</ele>
        <time>2010-01-01T02:01:58Z</time>
      </trkpt>
      <trkpt lat="37.08792900" lon="-8.24509978">
        <ele>38.000000</ele>
        <time>2010-01-01T02:02:14Z</time>
      </trkpt>
      <trkpt lat="37.08780490" lon="-8.24533045">
        <ele>36.000000</ele>
        <time>2010-01-01T02:02:23Z</time>
      </trkpt>
      <trkpt lat="37.08790760" lon="-8.24621021">
        <ele>39.000000</ele>
        <time>2010-01-01T02:02:52Z</time>
      </trkpt>
      <trkpt lat="37.08807020" lon="-8.24631214">
        <ele>40.000000</ele>
        <time>2010-01-01T02:02:59Z</time>
      </trkpt>
      <trkpt lat="37.08812580" lon="-8.24665009">
        <ele>39.000000</ele>
        <time>2010-01-01T02:03:10Z</time>
      </trkpt>
      <trkpt lat="37.08784340" lon="-8.24678421">
        <ele>37.000000</ele>
        <time>2010-01-01T02:03:22Z</time>
      </trkpt>
      <trkpt lat="37.08768940" lon="-8.24636042">
        <ele>37.000000</ele>
        <time>2010-01-01T02:03:37Z</time>
      </trkpt>
      <trkpt lat="37.08685490" lon="-8.24664473">
        <ele>28.000000</ele>
        <time>2010-01-01T02:04:11Z</time>
      </trkpt>
      <trkpt lat="37.08660240" lon="-8.24675202">
        <ele>26.000000</ele>
        <time>2010-01-01T02:04:22Z</time>
      </trkpt>
      <trkpt lat="37.08643550" lon="-8.24682712">
        <ele>25.000000</ele>
        <time>2010-01-01T02:04:29Z</time>
      </trkpt>
      <trkpt lat="37.08639270" lon="-8.24652671">
        <ele>23.000000</ele>
        <time>2010-01-01T02:04:39Z</time>
      </trkpt>
      <trkpt lat="37.08634140" lon="-8.24615120">
        <ele>21.000000</ele>
        <time>2010-01-01T02:04:51Z</time>
      </trkpt>
      <trkpt lat="37.08636700" lon="-8.24582397">
        <ele>20.000000</ele>
        <time>2010-01-01T02:05:02Z</time>
      </trkpt>
      <trkpt lat="37.08632430" lon="-8.24516415">
        <ele>14.000000</ele>
        <time>2010-01-01T02:05:23Z</time>
      </trkpt>
      <trkpt lat="37.08629430" lon="-8.24486911">
        <ele>13.000000</ele>
        <time>2010-01-01T02:05:32Z</time>
      </trkpt>
      <trkpt lat="37.08624720" lon="-8.24455797">
        <ele>13.000000</ele>
        <time>2010-01-01T02:05:42Z</time>
      </trkpt>
      <trkpt lat="37.08623870" lon="-8.24423074">
        <ele>13.000000</ele>
        <time>2010-01-01T02:05:53Z</time>
      </trkpt>
      <trkpt lat="37.08631140" lon="-8.24396252">
        <ele>13.000000</ele>
        <time>2010-01-01T02:06:02Z</time>
      </trkpt>
      <trkpt lat="37.08624720" lon="-8.24379086">
        <ele>14.000000</ele>
        <time>2010-01-01T02:06:08Z</time>
      </trkpt>
      <trkpt lat="37.08642270" lon="-8.24205279">
        <ele>22.000000</ele>
        <time>2010-01-01T02:07:04Z</time>
      </trkpt>
      <trkpt lat="37.08648690" lon="-8.24096381">
        <ele>27.000000</ele>
        <time>2010-01-01T02:07:39Z</time>
      </trkpt>
      <trkpt lat="37.08657250" lon="-8.24015915">
        <ele>35.000000</ele>
        <time>2010-01-01T02:08:05Z</time>
      </trkpt>
      <trkpt lat="37.08671370" lon="-8.23931694">
        <ele>38.000000</ele>
        <time>2010-01-01T02:08:32Z</time>
      </trkpt>
      <trkpt lat="37.08739840" lon="-8.23763251">
        <ele>39.000000</ele>
        <time>2010-01-01T02:09:32Z</time>
      </trkpt>
      <trkpt lat="37.08813010" lon="-8.23569059">
        <ele>40.000000</ele>
        <time>2010-01-01T02:10:41Z</time>
      </trkpt>
      <trkpt lat="37.08833550" lon="-8.23520779">
        <ele>38.000000</ele>
        <time>2010-01-01T02:10:59Z</time>
      </trkpt>
      <trkpt lat="37.08833120" lon="-8.23503077">
        <ele>38.000000</ele>
        <time>2010-01-01T02:11:04Z</time>
      </trkpt>
      <trkpt lat="37.08833120" lon="-8.23464453">
        <ele>39.000000</ele>
        <time>2010-01-01T02:11:17Z</time>
      </trkpt>
      <trkpt lat="37.08857940" lon="-8.23283672">
        <ele>40.000000</ele>
        <time>2010-01-01T02:12:15Z</time>
      </trkpt>
      <trkpt lat="37.08864790" lon="-8.23193550">
        <ele>35.000000</ele>
        <time>2010-01-01T02:12:44Z</time>
      </trkpt>
      <trkpt lat="37.08868210" lon="-8.23068022">
        <ele>34.000000</ele>
        <time>2010-01-01T02:13:24Z</time>
      </trkpt>
      <trkpt lat="37.08872490" lon="-8.22891533">
        <ele>41.000000</ele>
        <time>2010-01-01T02:14:20Z</time>
      </trkpt>
      <trkpt lat="37.08898170" lon="-8.22743475">
        <ele>44.000000</ele>
        <time>2010-01-01T02:15:09Z</time>
      </trkpt>
      <trkpt lat="37.08916140" lon="-8.22669982">
        <ele>42.000000</ele>
        <time>2010-01-01T02:15:33Z</time>
      </trkpt>
      <trkpt lat="37.08919560" lon="-8.22562694">
        <ele>44.000000</ele>
        <time>2010-01-01T02:16:08Z</time>
      </trkpt>
      <trkpt lat="37.08946520" lon="-8.22490274">
        <ele>41.000000</ele>
        <time>2010-01-01T02:16:33Z</time>
      </trkpt>
      <trkpt lat="37.08953800" lon="-8.22436094">
        <ele>37.000000</ele>
        <time>2010-01-01T02:16:51Z</time>
      </trkpt>
      <trkpt lat="37.08946950" lon="-8.22326660">
        <ele>40.000000</ele>
        <time>2010-01-01T02:17:26Z</time>
      </trkpt>
      <trkpt lat="37.08930260" lon="-8.22266042">
        <ele>45.000000</ele>
        <time>2010-01-01T02:17:46Z</time>
      </trkpt>
      <trkpt lat="37.08911430" lon="-8.22178065">
        <ele>46.000000</ele>
        <time>2010-01-01T02:18:15Z</time>
      </trkpt>
      <trkpt lat="37.08920420" lon="-8.22105646">
        <ele>48.000000</ele>
        <time>2010-01-01T02:18:39Z</time>
      </trkpt>
      <trkpt lat="37.08933260" lon="-8.22041273">
        <ele>47.000000</ele>
        <time>2010-01-01T02:19:00Z</time>
      </trkpt>
      <trkpt lat="37.08968350" lon="-8.21973681">
        <ele>44.000000</ele>
        <time>2010-01-01T02:19:26Z</time>
      </trkpt>
      <trkpt lat="37.09006430" lon="-8.21909844">
        <ele>41.000000</ele>
        <time>2010-01-01T02:19:51Z</time>
      </trkpt>
      <trkpt lat="37.09075320" lon="-8.21823477">
        <ele>32.000000</ele>
        <time>2010-01-01T02:20:30Z</time>
      </trkpt>
      <trkpt lat="37.09095440" lon="-8.21776807">
        <ele>30.000000</ele>
        <time>2010-01-01T02:20:47Z</time>
      </trkpt>
      <trkpt lat="37.09104850" lon="-8.21717262">
        <ele>29.000000</ele>
        <time>2010-01-01T02:21:06Z</time>
      </trkpt>
      <trkpt lat="37.09116400" lon="-8.21674346">
        <ele>26.000000</ele>
        <time>2010-01-01T02:21:21Z</time>
      </trkpt>
      <trkpt lat="37.09134800" lon="-8.21630358">
        <ele>24.000000</ele>
        <time>2010-01-01T02:21:37Z</time>
      </trkpt>
      <trkpt lat="37.09144220" lon="-8.21593344">
        <ele>22.000000</ele>
        <time>2010-01-01T02:21:49Z</time>
      </trkpt>
      <trkpt lat="37.09147210" lon="-8.21543455">
        <ele>21.000000</ele>
        <time>2010-01-01T02:22:05Z</time>
      </trkpt>
      <trkpt lat="37.09131810" lon="-8.21473181">
        <ele>24.000000</ele>
        <time>2010-01-01T02:22:28Z</time>
      </trkpt>
      <trkpt lat="37.09121540" lon="-8.21380376">
        <ele>28.000000</ele>
        <time>2010-01-01T02:22:58Z</time>
      </trkpt>
      <trkpt lat="37.09120260" lon="-8.21295619">
        <ele>28.000000</ele>
        <time>2010-01-01T02:23:25Z</time>
      </trkpt>
      <trkpt lat="37.09111270" lon="-8.21164190">
        <ele>27.000000</ele>
        <time>2010-01-01T02:24:08Z</time>
      </trkpt>
      <trkpt lat="37.09107850" lon="-8.21097135">
        <ele>30.000000</ele>
        <time>2010-01-01T02:24:29Z</time>
      </trkpt>
      <trkpt lat="37.09107850" lon="-8.21026325">
        <ele>33.000000</ele>
        <time>2010-01-01T02:24:52Z</time>
      </trkpt>
      <trkpt lat="37.09126250" lon="-8.20975363">
        <ele>35.000000</ele>
        <time>2010-01-01T02:25:10Z</time>
      </trkpt>
      <trkpt lat="37.09142930" lon="-8.20953369">
        <ele>39.000000</ele>
        <time>2010-01-01T02:25:19Z</time>
      </trkpt>
      <trkpt lat="37.09172030" lon="-8.20975899">
        <ele>43.000000</ele>
        <time>2010-01-01T02:25:33Z</time>
      </trkpt>
      <trkpt lat="37.09230230" lon="-8.20838570">
        <ele>41.000000</ele>
        <time>2010-01-01T00:00:00Z</time>
      </trkpt>
      <trkpt lat="37.09297830" lon="-8.20894360">
        <ele>46.000000</ele>
        <time>2010-01-01T00:00:32Z</time>
      </trkpt>
      <trkpt lat="37.09374000" lon="-8.20904016">
        <ele>45.000000</ele>
        <time>2010-01-01T00:01:03Z</time>
      </trkpt>
      <trkpt lat="37.09421070" lon="-8.20948004">
        <ele>42.000000</ele>
        <time>2010-01-01T00:01:26Z</time>
      </trkpt>
      <trkpt lat="37.09475840" lon="-8.20994138">
        <ele>40.000000</ele>
        <time>2010-01-01T00:01:52Z</time>
      </trkpt>
      <trkpt lat="37.09587940" lon="-8.21042418">
        <ele>46.000000</ele>
        <time>2010-01-01T00:02:40Z</time>
      </trkpt>
      <trkpt lat="37.09688070" lon="-8.21174383">
        <ele>53.000000</ele>
        <time>2010-01-01T00:03:38Z</time>
      </trkpt>
      <trkpt lat="37.09718870" lon="-8.21181893">
        <ele>52.000000</ele>
        <time>2010-01-01T00:03:51Z</time>
      </trkpt>
      <trkpt lat="37.09858360" lon="-8.21172237">
        <ele>53.000000</ele>
        <time>2010-01-01T00:04:47Z</time>
      </trkpt>
      <trkpt lat="37.09913130" lon="-8.21185111">
        <ele>50.000000</ele>
        <time>2010-01-01T00:05:09Z</time>
      </trkpt>
      <trkpt lat="37.09932810" lon="-8.21187257">
        <ele>50.000000</ele>
        <time>2010-01-01T00:05:17Z</time>
      </trkpt>
      <trkpt lat="37.09984150" lon="-8.21162581">
        <ele>51.000000</ele>
        <time>2010-01-01T00:05:39Z</time>
      </trkpt>
      <trkpt lat="37.10002120" lon="-8.21157217">
        <ele>52.000000</ele>
        <time>2010-01-01T00:05:46Z</time>
      </trkpt>
      <trkpt lat="37.10032070" lon="-8.21191549">
        <ele>52.000000</ele>
        <time>2010-01-01T00:06:02Z</time>
      </trkpt>
      <trkpt lat="37.10043190" lon="-8.21223735">
        <ele>53.000000</ele>
        <time>2010-01-01T00:06:14Z</time>
      </trkpt>
      <trkpt lat="37.10066300" lon="-8.21272015">
        <ele>55.000000</ele>
        <time>2010-01-01T00:06:32Z</time>
      </trkpt>
      <trkpt lat="37.10153580" lon="-8.21352481">
        <ele>58.000000</ele>
        <time>2010-01-01T00:07:15Z</time>
      </trkpt>
      <trkpt lat="37.10190370" lon="-8.21375012">
        <ele>59.000000</ele>
        <time>2010-01-01T00:07:31Z</time>
      </trkpt>
      <trkpt lat="37.10220320" lon="-8.21369647">
        <ele>60.000000</ele>
        <time>2010-01-01T00:07:43Z</time>
      </trkpt>
      <trkpt lat="37.10245990" lon="-8.21316003">
        <ele>59.000000</ele>
        <time>2010-01-01T00:08:03Z</time>
      </trkpt>
      <trkpt lat="37.10281080" lon="-8.21237683">
        <ele>56.000000</ele>
        <time>2010-01-01T00:08:32Z</time>
      </trkpt>
      <trkpt lat="37.10283220" lon="-8.21206569">
        <ele>55.000000</ele>
        <time>2010-01-01T00:08:42Z</time>
      </trkpt>
      <trkpt lat="37.10279790" lon="-8.21186184">
        <ele>54.000000</ele>
        <time>2010-01-01T00:08:49Z</time>
      </trkpt>
      <trkpt lat="37.10266530" lon="-8.21160435">
        <ele>53.000000</ele>
        <time>2010-01-01T00:08:59Z</time>
      </trkpt>
      <trkpt lat="37.10264820" lon="-8.21127176">
        <ele>52.000000</ele>
        <time>2010-01-01T00:09:09Z</time>
      </trkpt>
      <trkpt lat="37.10257970" lon="-8.21090698">
        <ele>50.000000</ele>
        <time>2010-01-01T00:09:21Z</time>
      </trkpt>
      <trkpt lat="37.10261820" lon="-8.21062803">
        <ele>49.000000</ele>
        <time>2010-01-01T00:09:30Z</time>
      </trkpt>
      <trkpt lat="37.10269530" lon="-8.21042954">
        <ele>49.000000</ele>
        <time>2010-01-01T00:09:37Z</time>
      </trkpt>
      <trkpt lat="37.10284930" lon="-8.21026861">
        <ele>50.000000</ele>
        <time>2010-01-01T00:09:45Z</time>
      </trkpt>
      <trkpt lat="37.10295620" lon="-8.20947468">
        <ele>50.000000</ele>
        <time>2010-01-01T00:10:11Z</time>
      </trkpt>
      <trkpt lat="37.10306750" lon="-8.20832669">
        <ele>58.000000</ele>
        <time>2010-01-01T00:10:48Z</time>
      </trkpt>
      <trkpt lat="37.10293060" lon="-8.20776879">
        <ele>57.000000</ele>
        <time>2010-01-01T00:11:06Z</time>
      </trkpt>
      <trkpt lat="37.10286210" lon="-8.20765078">
        <ele>56.000000</ele>
        <time>2010-01-01T00:11:11Z</time>
      </trkpt>
      <trkpt lat="37.10280220" lon="-8.20737183">
        <ele>56.000000</ele>
        <time>2010-01-01T00:11:20Z</time>
      </trkpt>
      <trkpt lat="37.10273380" lon="-8.20710361">
        <ele>55.000000</ele>
        <time>2010-01-01T00:11:29Z</time>
      </trkpt>
      <trkpt lat="37.10273380" lon="-8.20691049">
        <ele>55.000000</ele>
        <time>2010-01-01T00:11:36Z</time>
      </trkpt>
      <trkpt lat="37.10252840" lon="-8.20621848">
        <ele>53.000000</ele>
        <time>2010-01-01T00:11:59Z</time>
      </trkpt>
      <trkpt lat="37.10244280" lon="-8.20575714">
        <ele>49.000000</ele>
        <time>2010-01-01T00:12:14Z</time>
      </trkpt>
      <trkpt lat="37.10266100" lon="-8.20523142">
        <ele>44.000000</ele>
        <time>2010-01-01T00:12:33Z</time>
      </trkpt>
      <trkpt lat="37.10276370" lon="-8.20482373">
        <ele>42.000000</ele>
        <time>2010-01-01T00:12:47Z</time>
      </trkpt>
      <trkpt lat="37.10286210" lon="-8.20429265">
        <ele>42.000000</ele>
        <time>2010-01-01T00:13:04Z</time>
      </trkpt>
      <trkpt lat="37.10302470" lon="-8.20379376">
        <ele>44.000000</ele>
        <time>2010-01-01T00:13:21Z</time>
      </trkpt>
      <trkpt lat="37.10308460" lon="-8.20316612">
        <ele>48.000000</ele>
        <time>2010-01-01T00:13:42Z</time>
      </trkpt>
      <trkpt lat="37.10326430" lon="-8.20223808">
        <ele>51.000000</ele>
        <time>2010-01-01T00:14:12Z</time>
      </trkpt>
      <trkpt lat="37.10344830" lon="-8.20148169">
        <ele>56.000000</ele>
        <time>2010-01-01T00:14:37Z</time>
      </trkpt>
      <trkpt lat="37.10355950" lon="-8.20127785">
        <ele>56.000000</ele>
        <time>2010-01-01T00:14:45Z</time>
      </trkpt>
      <trkpt lat="37.10364930" lon="-8.20090234">
        <ele>55.000000</ele>
        <time>2010-01-01T00:14:58Z</time>
      </trkpt>
      <trkpt lat="37.10381620" lon="-8.20036053">
        <ele>54.000000</ele>
        <time>2010-01-01T00:15:16Z</time>
      </trkpt>
      <trkpt lat="37.10397450" lon="-8.19993138">
        <ele>54.000000</ele>
        <time>2010-01-01T00:15:31Z</time>
      </trkpt>
      <trkpt lat="37.10407290" lon="-8.19960415">
        <ele>54.000000</ele>
        <time>2010-01-01T00:15:43Z</time>
      </trkpt>
      <trkpt lat="37.10416270" lon="-8.19911062">
        <ele>52.000000</ele>
        <time>2010-01-01T00:15:59Z</time>
      </trkpt>
      <trkpt lat="37.10429110" lon="-8.19841325">
        <ele>52.000000</ele>
        <time>2010-01-01T00:16:22Z</time>
      </trkpt>
      <trkpt lat="37.10428680" lon="-8.19787144">
        <ele>53.000000</ele>
        <time>2010-01-01T00:16:39Z</time>
      </trkpt>
      <trkpt lat="37.10425260" lon="-8.19742619">
        <ele>54.000000</ele>
        <time>2010-01-01T00:16:53Z</time>
      </trkpt>
      <trkpt lat="37.10416700" lon="-8.19678246">
        <ele>56.000000</ele>
        <time>2010-01-01T00:17:14Z</time>
      </trkpt>
      <trkpt lat="37.10409860" lon="-8.19633722">
        <ele>57.000000</ele>
        <time>2010-01-01T00:17:28Z</time>
      </trkpt>
      <trkpt lat="37.10398730" lon="-8.19495856">
        <ele>59.000000</ele>
        <time>2010-01-01T00:18:13Z</time>
      </trkpt>
      <trkpt lat="37.10378630" lon="-8.19435775">
        <ele>58.000000</ele>
        <time>2010-01-01T00:18:33Z</time>
      </trkpt>
      <trkpt lat="37.10339260" lon="-8.19271624">
        <ele>60.000000</ele>
        <time>2010-01-01T00:19:28Z</time>
      </trkpt>
      <trkpt lat="37.10320440" lon="-8.19193303">
        <ele>59.000000</ele>
        <time>2010-01-01T00:19:54Z</time>
      </trkpt>
      <trkpt lat="37.10292200" lon="-8.19095671">
        <ele>59.000000</ele>
        <time>2010-01-01T00:20:27Z</time>
      </trkpt>
      <trkpt lat="37.10227600" lon="-8.18826377">
        <ele>52.000000</ele>
        <time>2010-01-01T00:21:57Z</time>
      </trkpt>
      <trkpt lat="37.10183960" lon="-8.18648278">
        <ele>49.000000</ele>
        <time>2010-01-01T00:22:57Z</time>
      </trkpt>
      <trkpt lat="37.10163850" lon="-8.18567276">
        <ele>50.000000</ele>
        <time>2010-01-01T00:23:24Z</time>
      </trkpt>
      <trkpt lat="37.10141600" lon="-8.18477153">
        <ele>51.000000</ele>
        <time>2010-01-01T00:23:54Z</time>
      </trkpt>
      <trkpt lat="37.10130050" lon="-8.18454623">
        <ele>52.000000</ele>
        <time>2010-01-01T00:24:02Z</time>
      </trkpt>
      <trkpt lat="37.10136470" lon="-8.18417072">
        <ele>52.000000</ele>
        <time>2010-01-01T00:24:15Z</time>
      </trkpt>
      <trkpt lat="37.10136040" lon="-8.18352699">
        <ele>50.000000</ele>
        <time>2010-01-01T00:24:35Z</time>
      </trkpt>
      <trkpt lat="37.10125770" lon="-8.18280279">
        <ele>50.000000</ele>
        <time>2010-01-01T00:24:59Z</time>
      </trkpt>
      <trkpt lat="37.10113790" lon="-8.18203568">
        <ele>49.000000</ele>
        <time>2010-01-01T00:25:24Z</time>
      </trkpt>
      <trkpt lat="37.10103950" lon="-8.18166553">
        <ele>47.000000</ele>
        <time>2010-01-01T00:25:36Z</time>
      </trkpt>
      <trkpt lat="37.10093250" lon="-8.18132758">
        <ele>46.000000</ele>
        <time>2010-01-01T00:25:48Z</time>
      </trkpt>
      <trkpt lat="37.10084700" lon="-8.18052828">
        <ele>45.000000</ele>
        <time>2010-01-01T00:26:14Z</time>
      </trkpt>
      <trkpt lat="37.10083410" lon="-8.18008840">
        <ele>45.000000</ele>
        <time>2010-01-01T00:26:28Z</time>
      </trkpt>
      <trkpt lat="37.10087690" lon="-8.17938566">
        <ele>46.000000</ele>
        <time>2010-01-01T00:26:50Z</time>
      </trkpt>
      <trkpt lat="37.10040200" lon="-8.17976117">
        <ele>45.000000</ele>
        <time>2010-01-01T00:27:13Z</time>
      </trkpt>
      <trkpt lat="37.10008540" lon="-8.17996501">
        <ele>44.000000</ele>
        <time>2010-01-01T00:27:27Z</time>
      </trkpt>
      <trkpt lat="37.09996990" lon="-8.18004548">
        <ele>43.000000</ele>
        <time>2010-01-01T00:27:32Z</time>
      </trkpt>
      <trkpt lat="37.09984580" lon="-8.18001329">
        <ele>43.000000</ele>
        <time>2010-01-01T00:27:37Z</time>
      </trkpt>
      <trkpt lat="37.09941360" lon="-8.17889750">
        <ele>40.000000</ele>
        <time>2010-01-01T00:28:17Z</time>
      </trkpt>
      <trkpt lat="37.09887030" lon="-8.17753493">
        <ele>40.000000</ele>
        <time>2010-01-01T00:29:05Z</time>
      </trkpt>
      <trkpt lat="37.09853220" lon="-8.17678391">
        <ele>42.000000</ele>
        <time>2010-01-01T00:29:33Z</time>
      </trkpt>
      <trkpt lat="37.09812580" lon="-8.17569494">
        <ele>36.000000</ele>
        <time>2010-01-01T00:30:11Z</time>
      </trkpt>
      <trkpt lat="37.09777920" lon="-8.17470788">
        <ele>34.000000</ele>
        <time>2010-01-01T00:30:46Z</time>
      </trkpt>
      <trkpt lat="37.09718020" lon="-8.17307174">
        <ele>34.000000</ele>
        <time>2010-01-01T00:31:43Z</time>
      </trkpt>
      <trkpt lat="37.09720000" lon="-8.17267000">
        <ele>34.000000</ele>
        <time>2010-01-01T00:31:56Z</time>
      </trkpt>
      <trkpt lat="37.09716000" lon="-8.17266000">
        <ele>34.000000</ele>
        <time>2010-01-01T00:31:58Z</time>
      </trkpt>
      <trkpt lat="37.09720000" lon="-8.17267000">
        <ele>34.000000</ele>
        <time>2010-01-01T00:31:59Z</time>
      </trkpt>
      <trkpt lat="37.09727860" lon="-8.17203104">
        <ele>34.000000</ele>
        <time>2010-01-01T00:32:20Z</time>
      </trkpt>
      <trkpt lat="37.09734700" lon="-8.17155361">
        <ele>35.000000</ele>
        <time>2010-01-01T00:32:36Z</time>
      </trkpt>
      <trkpt lat="37.09777000" lon="-8.17046000">
        <ele>36.000000</ele>
        <time>2010-01-01T00:33:14Z</time>
      </trkpt>
      <trkpt lat="37.09798000" lon="-8.17018000">
        <ele>38.000000</ele>
        <time>2010-01-01T00:33:27Z</time>
      </trkpt>
      <trkpt lat="37.09841000" lon="-8.16906000">
        <ele>33.000000</ele>
        <time>2010-01-01T00:34:06Z</time>
      </trkpt>
      <trkpt lat="37.09842000" lon="-8.16606000">
        <ele>25.000000</ele>
        <time>2010-01-01T00:35:42Z</time>
      </trkpt>
      <trkpt lat="37.09858000" lon="-8.16273000">
        <ele>20.000000</ele>
        <time>2010-01-01T00:37:29Z</time>
      </trkpt>
      <trkpt lat="37.09851000" lon="-8.16260000">
        <ele>19.000000</ele>
        <time>2010-01-01T00:37:34Z</time>
      </trkpt>
      <trkpt lat="37.09832000" lon="-8.16245000">
        <ele>19.000000</ele>
        <time>2010-01-01T00:37:43Z</time>
      </trkpt>
      <trkpt lat="37.09829000" lon="-8.16244000">
        <ele>19.000000</ele>
        <time>2010-01-01T00:37:44Z</time>
      </trkpt>
      <trkpt lat="37.09776000" lon="-8.16233000">
        <ele>16.000000</ele>
        <time>2010-01-01T00:38:05Z</time>
      </trkpt>
      <trkpt lat="37.09670000" lon="-8.16173000">
        <ele>11.000000</ele>
        <time>2010-01-01T00:38:52Z</time>
      </trkpt>
      <trkpt lat="37.09586000" lon="-8.16181000">
        <ele>11.000000</ele>
        <time>2010-01-01T00:39:26Z</time>
      </trkpt>
      <trkpt lat="37.09518000" lon="-8.16209000">
        <ele>12.000000</ele>
        <time>2010-01-01T00:39:54Z</time>
      </trkpt>
      <trkpt lat="37.09454000" lon="-8.16205000">
        <ele>7.0000000</ele>
        <time>2010-01-01T00:40:20Z</time>
      </trkpt>
      <trkpt lat="37.09411000" lon="-8.16184000">
        <ele>7.0000000</ele>
        <time>2010-01-01T00:40:38Z</time>
      </trkpt>
      <trkpt lat="37.09406000" lon="-8.16190000">
        <ele>8.0000000</ele>
        <time>2010-01-01T00:40:41Z</time>
      </trkpt>
      <trkpt lat="37.09382000" lon="-8.16255000">
        <ele>12.000000</ele>
        <time>2010-01-01T00:41:04Z</time>
      </trkpt>
      <trkpt lat="37.09369000" lon="-8.16283000">
        <ele>13.000000</ele>
        <time>2010-01-01T00:41:14Z</time>
      </trkpt>
      <trkpt lat="37.09364000" lon="-8.16290000">
        <ele>14.000000</ele>
        <time>2010-01-01T00:41:17Z</time>
      </trkpt>
      <trkpt lat="37.09361000" lon="-8.16275000">
        <ele>12.000000</ele>
        <time>2010-01-01T00:41:22Z</time>
      </trkpt>
      <trkpt lat="37.09356000" lon="-8.16265000">
        <ele>12.000000</ele>
        <time>2010-01-01T00:41:26Z</time>
      </trkpt>
      <trkpt lat="37.09349000" lon="-8.16256000">
        <ele>12.000000</ele>
        <time>2010-01-01T00:41:30Z</time>
      </trkpt>
      <trkpt lat="37.09227000" lon="-8.16162000">
        <ele>10.000000</ele>
        <time>2010-01-01T00:42:27Z</time>
      </trkpt>
      <trkpt lat="37.09134000" lon="-8.16096000">
        <ele>10.000000</ele>
        <time>2010-01-01T00:43:10Z</time>
      </trkpt>
      <trkpt lat="37.09109000" lon="-8.16082000">
        <ele>9.0000000</ele>
        <time>2010-01-01T00:43:21Z</time>
      </trkpt>
      <trkpt lat="37.09041000" lon="-8.16033000">
        <ele>10.000000</ele>
        <time>2010-01-01T00:43:53Z</time>
      </trkpt>
      <trkpt lat="37.08984000" lon="-8.15969000">
        <ele>12.000000</ele>
        <time>2010-01-01T00:44:23Z</time>
      </trkpt>
      <trkpt lat="37.08870000" lon="-8.15815000">
        <ele>10.000000</ele>
        <time>2010-01-01T00:45:30Z</time>
      </trkpt>
      <trkpt lat="37.08803000" lon="-8.15729000">
        <ele>11.000000</ele>
        <time>2010-01-01T00:46:09Z</time>
      </trkpt>
      <trkpt lat="37.08805000" lon="-8.15732000">
        <ele>11.000000</ele>
        <time>2010-01-01T00:46:10Z</time>
      </trkpt>
      <trkpt lat="37.08828000" lon="-8.15697000">
        <ele>10.000000</ele>
        <time>2010-01-01T00:46:24Z</time>
      </trkpt>
      <trkpt lat="37.08822000" lon="-8.15612000">
        <ele>9.0000000</ele>
        <time>2010-01-01T00:46:52Z</time>
      </trkpt>
      <trkpt lat="37.08731000" lon="-8.15451000">
        <ele>6.0000000</ele>
        <time>2010-01-01T00:47:55Z</time>
      </trkpt>
      <trkpt lat="37.08717000" lon="-8.15405000">
        <ele>6.0000000</ele>
        <time>2010-01-01T00:48:10Z</time>
      </trkpt>
      <trkpt lat="37.08712000" lon="-8.15340000">
        <ele>8.0000000</ele>
        <time>2010-01-01T00:48:31Z</time>
      </trkpt>
      <trkpt lat="37.08719000" lon="-8.15247000">
        <ele>7.0000000</ele>
        <time>2010-01-01T00:49:01Z</time>
      </trkpt>
      <trkpt lat="37.08710000" lon="-8.15185000">
        <ele>9.0000000</ele>
        <time>2010-01-01T00:49:21Z</time>
      </trkpt>
      <trkpt lat="37.08689000" lon="-8.15116000">
        <ele>10.000000</ele>
        <time>2010-01-01T00:49:45Z</time>
      </trkpt>
      <trkpt lat="37.08662000" lon="-8.15052000">
        <ele>8.0000000</ele>
        <time>2010-01-01T00:50:08Z</time>
      </trkpt>
      <trkpt lat="37.08598000" lon="-8.14923000">
        <ele>7.0000000</ele>
        <time>2010-01-01T00:50:56Z</time>
      </trkpt>
      <trkpt lat="37.08599000" lon="-8.14882000">
        <ele>8.0000000</ele>
        <time>2010-01-01T00:51:09Z</time>
      </trkpt>
      <trkpt lat="37.08592000" lon="-8.14856000">
        <ele>9.0000000</ele>
        <time>2010-01-01T00:51:18Z</time>
      </trkpt>
      <trkpt lat="37.08581000" lon="-8.14832000">
        <ele>10.000000</ele>
        <time>2010-01-01T00:51:27Z</time>
      </trkpt>
      <trkpt lat="37.08566000" lon="-8.14818000">
        <ele>13.000000</ele>
        <time>2010-01-01T00:51:35Z</time>
      </trkpt>
      <trkpt lat="37.08554000" lon="-8.14795000">
        <ele>13.000000</ele>
        <time>2010-01-01T00:51:43Z</time>
      </trkpt>
      <trkpt lat="37.08548000" lon="-8.14771000">
        <ele>10.000000</ele>
        <time>2010-01-01T00:51:51Z</time>
      </trkpt>
      <trkpt lat="37.08521000" lon="-8.14704000">
        <ele>10.000000</ele>
        <time>2010-01-01T00:52:15Z</time>
      </trkpt>
      <trkpt lat="37.08518000" lon="-8.14659000">
        <ele>8.0000000</ele>
        <time>2010-01-01T00:52:30Z</time>
      </trkpt>
      <trkpt lat="37.08503000" lon="-8.14615000">
        <ele>10.000000</ele>
        <time>2010-01-01T00:52:45Z</time>
      </trkpt>
      <trkpt lat="37.08452000" lon="-8.14549000">
        <ele>9.0000000</ele>
        <time>2010-01-01T00:53:14Z</time>
      </trkpt>
      <trkpt lat="37.08426000" lon="-8.14526000">
        <ele>9.0000000</ele>
        <time>2010-01-01T00:53:27Z</time>
      </trkpt>
      <trkpt lat="37.08400000" lon="-8.14507000">
        <ele>9.0000000</ele>
        <time>2010-01-01T00:53:39Z</time>
      </trkpt>
      <trkpt lat="37.08394000" lon="-8.14493000">
        <ele>9.0000000</ele>
        <time>2010-01-01T00:53:44Z</time>
      </trkpt>
      <trkpt lat="37.08372000" lon="-8.14415000">
        <ele>7.0000000</ele>
        <time>2010-01-01T00:54:11Z</time>
      </trkpt>
      <trkpt lat="37.08355000" lon="-8.14365000">
        <ele>6.0000000</ele>
        <time>2010-01-01T00:54:28Z</time>
      </trkpt>
      <trkpt lat="37.08328000" lon="-8.14327000">
        <ele>8.0000000</ele>
        <time>2010-01-01T00:54:44Z</time>
      </trkpt>
      <trkpt lat="37.08299000" lon="-8.14300000">
        <ele>7.0000000</ele>
        <time>2010-01-01T00:54:59Z</time>
      </trkpt>
      <trkpt lat="37.08198000" lon="-8.14183000">
        <ele>7.0000000</ele>
        <time>2010-01-01T00:55:54Z</time>
      </trkpt>
      <trkpt lat="37.08118000" lon="-8.14069000">
        <ele>5.0000000</ele>
        <time>2010-01-01T00:56:42Z</time>
      </trkpt>
      <trkpt lat="37.08092000" lon="-8.14035000">
        <ele>5.0000000</ele>
        <time>2010-01-01T00:56:57Z</time>
      </trkpt>
      <trkpt lat="37.08069000" lon="-8.13998000">
        <ele>5.0000000</ele>
        <time>2010-01-01T00:57:12Z</time>
      </trkpt>
      <trkpt lat="37.08043000" lon="-8.13987000">
        <ele>6.0000000</ele>
        <time>2010-01-01T00:57:23Z</time>
      </trkpt>
      <trkpt lat="37.08016000" lon="-8.13968000">
        <ele>7.0000000</ele>
        <time>2010-01-01T00:57:36Z</time>
      </trkpt>
      <trkpt lat="37.08003000" lon="-8.13932000">
        <ele>7.0000000</ele>
        <time>2010-01-01T00:57:48Z</time>
      </trkpt>
      <trkpt lat="37.07991000" lon="-8.13891000">
        <ele>7.0000000</ele>
        <time>2010-01-01T00:58:02Z</time>
      </trkpt>
      <trkpt lat="37.07986000" lon="-8.13868000">
        <ele>6.0000000</ele>
        <time>2010-01-01T00:58:10Z</time>
      </trkpt>
      <trkpt lat="37.07986000" lon="-8.13841000">
        <ele>6.0000000</ele>
        <time>2010-01-01T00:58:18Z</time>
      </trkpt>
      <trkpt lat="37.08001000" lon="-8.13732000">
        <ele>5.0000000</ele>
        <time>2010-01-01T00:58:54Z</time>
      </trkpt>
      <trkpt lat="37.07998000" lon="-8.13714000">
        <ele>4.0000000</ele>
        <time>2010-01-01T00:59:00Z</time>
      </trkpt>
      <trkpt lat="37.07994000" lon="-8.13682000">
        <ele>3.0000000</ele>
        <time>2010-01-01T00:59:10Z</time>
      </trkpt>
      <trkpt lat="37.07979000" lon="-8.13649000">
        <ele>3.0000000</ele>
        <time>2010-01-01T00:59:22Z</time>
      </trkpt>
      <trkpt lat="37.07930000" lon="-8.13581000">
        <ele>5.0000000</ele>
        <time>2010-01-01T00:59:51Z</time>
      </trkpt>
      <trkpt lat="37.07906000" lon="-8.13552000">
        <ele>5.0000000</ele>
        <time>2010-01-01T01:00:05Z</time>
      </trkpt>
      <trkpt lat="37.07888000" lon="-8.13537000">
        <ele>4.0000000</ele>
        <time>2010-01-01T01:00:13Z</time>
      </trkpt>
      <trkpt lat="37.07848000" lon="-8.13519000">
        <ele>4.0000000</ele>
        <time>2010-01-01T01:00:30Z</time>
      </trkpt>
      <trkpt lat="37.07818000" lon="-8.13500000">
        <ele>5.0000000</ele>
        <time>2010-01-01T01:00:44Z</time>
      </trkpt>
      <trkpt lat="37.07805000" lon="-8.13486000">
        <ele>4.0000000</ele>
        <time>2010-01-01T01:00:51Z</time>
      </trkpt>
      <trkpt lat="37.07783000" lon="-8.13476000">
        <ele>5.0000000</ele>
        <time>2010-01-01T01:01:00Z</time>
      </trkpt>
      <trkpt lat="37.07759000" lon="-8.13462000">
        <ele>5.0000000</ele>
        <time>2010-01-01T01:01:11Z</time>
      </trkpt>
      <trkpt lat="37.07730000" lon="-8.13450000">
        <ele>5.0000000</ele>
        <time>2010-01-01T01:01:23Z</time>
      </trkpt>
      <trkpt lat="37.07719000" lon="-8.13438000">
        <ele>4.0000000</ele>
        <time>2010-01-01T01:01:29Z</time>
      </trkpt>
      <trkpt lat="37.07699000" lon="-8.13408000">
        <ele>5.0000000</ele>
        <time>2010-01-01T01:01:41Z</time>
      </trkpt>
      <trkpt lat="37.07688000" lon="-8.13383000">
        <ele>5.0000000</ele>
        <time>2010-01-01T01:01:50Z</time>
      </trkpt>
      <trkpt lat="37.07679000" lon="-8.13353000">
        <ele>4.0000000</ele>
        <time>2010-01-01T01:02:01Z</time>
      </trkpt>
      <trkpt lat="37.07672000" lon="-8.13294000">
        <ele>5.0000000</ele>
        <time>2010-01-01T01:02:20Z</time>
      </trkpt>
      <trkpt lat="37.07660000" lon="-8.13218000">
        <ele>4.0000000</ele>
        <time>2010-01-01T01:02:44Z</time>
      </trkpt>
      <trkpt lat="37.07641000" lon="-8.13139000">
        <ele>2.0000000</ele>
        <time>2010-01-01T01:03:11Z</time>
      </trkpt>
      <trkpt lat="37.07635000" lon="-8.13103000">
        <ele>3.0000000</ele>
        <time>2010-01-01T01:03:22Z</time>
      </trkpt>
      <trkpt lat="37.07633000" lon="-8.13034000">
        <ele>5.0000000</ele>
        <time>2010-01-01T01:03:45Z</time>
      </trkpt>
      <trkpt lat="37.07643000" lon="-8.13009000">
        <ele>4.0000000</ele>
        <time>2010-01-01T01:03:53Z</time>
      </trkpt>
      <trkpt lat="37.07642000" lon="-8.12971000">
        <ele>3.0000000</ele>
        <time>2010-01-01T01:04:06Z</time>
      </trkpt>
      <trkpt lat="37.07618000" lon="-8.12911000">
        <ele>3.0000000</ele>
        <time>2010-01-01T01:04:27Z</time>
      </trkpt>
      <trkpt lat="37.07545000" lon="-8.12661000">
        <ele>2.0000000</ele>
        <time>2010-01-01T01:05:52Z</time>
      </trkpt>
      <trkpt lat="37.07532000" lon="-8.12635000">
        <ele>2.0000000</ele>
        <time>2010-01-01T01:06:02Z</time>
      </trkpt>
      <trkpt lat="37.07513000" lon="-8.12612000">
        <ele>3.0000000</ele>
        <time>2010-01-01T01:06:12Z</time>
      </trkpt>
      <trkpt lat="37.07473000" lon="-8.12589000">
        <ele>3.0000000</ele>
        <time>2010-01-01T01:06:30Z</time>
      </trkpt>
      <trkpt lat="37.07440000" lon="-8.12576000">
        <ele>2.0000000</ele>
        <time>2010-01-01T01:06:44Z</time>
      </trkpt>
      <trkpt lat="37.07433000" lon="-8.12573000">
        <ele>3.0000000</ele>
        <time>2010-01-01T01:06:47Z</time>
      </trkpt>
      <trkpt lat="37.07442000" lon="-8.12532000">
        <ele>2.0000000</ele>
        <time>2010-01-01T01:07:00Z</time>
      </trkpt>
      <trkpt lat="37.07472000" lon="-8.12539000">
        <ele>2.0000000</ele>
        <time>2010-01-01T01:07:13Z</time>
      </trkpt>
      <trkpt lat="37.07506000" lon="-8.12543000">
        <ele>3.0000000</ele>
        <time>2010-01-01T01:07:26Z</time>
      </trkpt>
      <trkpt lat="37.07520140" lon="-8.12550544">
        <ele>3.0000000</ele>
        <time>2010-01-01T01:07:32Z</time>
      </trkpt>
      <trkpt lat="37.07521000" lon="-8.12537670">
        <ele>4.0000000</ele>
        <time>2010-01-01T01:07:37Z</time>
      </trkpt>
      <trkpt lat="37.07518860" lon="-8.12516748">
        <ele>4.0000000</ele>
        <time>2010-01-01T01:07:43Z</time>
      </trkpt>
      <trkpt lat="37.07527850" lon="-8.12509775">
        <ele>4.0000000</ele>
        <time>2010-01-01T01:07:48Z</time>
      </trkpt>
      <trkpt lat="37.07579210" lon="-8.12466859">
        <ele>4.0000000</ele>
        <time>2010-01-01T01:08:12Z</time>
      </trkpt>
      <trkpt lat="37.07659670" lon="-8.12407851">
        <ele>1.0000000</ele>
        <time>2010-01-01T01:08:50Z</time>
      </trkpt>
      <trkpt lat="37.07698190" lon="-8.12419652">
        <ele>1.0000000</ele>
        <time>2010-01-01T01:09:05Z</time>
      </trkpt>
      <trkpt lat="37.07737560" lon="-8.12475442">
        <ele>1.0000000</ele>
        <time>2010-01-01T01:09:29Z</time>
      </trkpt>
      <trkpt lat="37.07780360" lon="-8.12502264">
        <ele>1.0000000</ele>
        <time>2010-01-01T01:09:48Z</time>
      </trkpt>
      <trkpt lat="37.07841990" lon="-8.12497973">
        <ele>1.0000000</ele>
        <time>2010-01-01T01:10:13Z</time>
      </trkpt>
      <trkpt lat="37.07874520" lon="-8.12497973">
        <ele>2.0000000</ele>
        <time>2010-01-01T01:10:26Z</time>
      </trkpt>
      <trkpt lat="37.07876230" lon="-8.12466859">
        <ele>2.0000000</ele>
        <time>2010-01-01T01:10:36Z</time>
      </trkpt>
      <trkpt lat="37.07877080" lon="-8.12411069">
        <ele>3.0000000</ele>
        <time>2010-01-01T01:10:54Z</time>
      </trkpt>
      <trkpt lat="37.07867670" lon="-8.12384247">
        <ele>3.0000000</ele>
        <time>2010-01-01T01:11:03Z</time>
      </trkpt>
      <trkpt lat="37.07809460" lon="-8.12391757">
        <ele>3.0000000</ele>
        <time>2010-01-01T01:11:27Z</time>
      </trkpt>
      <trkpt lat="37.07761530" lon="-8.12388539">
        <ele>3.0000000</ele>
        <time>2010-01-01T01:11:46Z</time>
      </trkpt>
      <trkpt lat="37.07751260" lon="-8.12205076">
        <ele>2.0000000</ele>
        <time>2010-01-01T01:12:45Z</time>
      </trkpt>
      <trkpt lat="37.07887350" lon="-8.12184691">
        <ele>5.0000000</ele>
        <time>2010-01-01T01:13:40Z</time>
      </trkpt>
      <trkpt lat="37.07880510" lon="-8.12126755">
        <ele>2.0000000</ele>
        <time>2010-01-01T01:13:58Z</time>
      </trkpt>
      <trkpt lat="37.07863390" lon="-8.12095642">
        <ele>1.0000000</ele>
        <time>2010-01-01T01:14:10Z</time>
      </trkpt>
      <trkpt lat="37.07892490" lon="-8.12046289">
        <ele>2.0000000</ele>
        <time>2010-01-01T01:14:30Z</time>
      </trkpt>
      <trkpt lat="37.07931010" lon="-8.12000155">
        <ele>4.0000000</ele>
        <time>2010-01-01T01:14:51Z</time>
      </trkpt>
      <trkpt lat="37.07930150" lon="-8.11977624">
        <ele>5.0000000</ele>
        <time>2010-01-01T01:14:58Z</time>
      </trkpt>
      <trkpt lat="37.07880510" lon="-8.11905741">
        <ele>5.0000000</ele>
        <time>2010-01-01T01:15:29Z</time>
      </trkpt>
      <trkpt lat="37.07782070" lon="-8.11774849">
        <ele>4.0000000</ele>
        <time>2010-01-01T01:16:26Z</time>
      </trkpt>
      <trkpt lat="37.07755540" lon="-8.11771631">
        <ele>5.0000000</ele>
        <time>2010-01-01T01:16:37Z</time>
      </trkpt>
      <trkpt lat="37.07652820" lon="-8.11893939">
        <ele>3.0000000</ele>
        <time>2010-01-01T01:17:34Z</time>
      </trkpt>
      <trkpt lat="37.07608310" lon="-8.11917543">
        <ele>4.0000000</ele>
        <time>2010-01-01T01:17:53Z</time>
      </trkpt>
      <trkpt lat="37.07472210" lon="-8.11943292">
        <ele>7.0000000</ele>
        <time>2010-01-01T01:18:48Z</time>
      </trkpt>
      <trkpt lat="37.07466640" lon="-8.11959385">
        <ele>12.000000</ele>
        <time>2010-01-01T01:18:54Z</time>
      </trkpt>
      <trkpt lat="37.07486330" lon="-8.12148749">
        <ele>2.0000000</ele>
        <time>2010-01-01T01:19:55Z</time>
      </trkpt>
      <trkpt lat="37.07478630" lon="-8.12155187">
        <ele>2.0000000</ele>
        <time>2010-01-01T01:19:58Z</time>
      </trkpt>
      <trkpt lat="37.07458510" lon="-8.12157332">
        <ele>4.0000000</ele>
        <time>2010-01-01T01:20:06Z</time>
      </trkpt>
      <trkpt lat="37.07419130" lon="-8.12173962">
        <ele>3.0000000</ele>
        <time>2010-01-01T01:20:23Z</time>
      </trkpt>
      <trkpt lat="37.07412710" lon="-8.12168061">
        <ele>3.0000000</ele>
        <time>2010-01-01T01:20:26Z</time>
      </trkpt>
      <trkpt lat="37.07401590" lon="-8.12129437">
        <ele>9.0000000</ele>
        <time>2010-01-01T01:20:39Z</time>
      </trkpt>
      <trkpt lat="37.07386610" lon="-8.12132656">
        <ele>6.0000000</ele>
        <time>2010-01-01T01:20:45Z</time>
      </trkpt>
      <trkpt lat="37.07330960" lon="-8.12154650">
        <ele>4.0000000</ele>
        <time>2010-01-01T01:21:09Z</time>
      </trkpt>
      <trkpt lat="37.07284740" lon="-8.12014102">
        <ele>5.0000000</ele>
        <time>2010-01-01T01:21:57Z</time>
      </trkpt>
      <trkpt lat="37.07272760" lon="-8.11962604">
        <ele>4.0000000</ele>
        <time>2010-01-01T01:22:15Z</time>
      </trkpt>
      <trkpt lat="37.07270190" lon="-8.11916470">
        <ele>5.0000000</ele>
        <time>2010-01-01T01:22:29Z</time>
      </trkpt>
      <trkpt lat="37.07272760" lon="-8.11886429">
        <ele>7.0000000</ele>
        <time>2010-01-01T01:22:39Z</time>
      </trkpt>
      <trkpt lat="37.07289020" lon="-8.11870336">
        <ele>8.0000000</ele>
        <time>2010-01-01T01:22:47Z</time>
      </trkpt>
      <trkpt lat="37.07283030" lon="-8.11866581">
        <ele>8.0000000</ele>
        <time>2010-01-01T01:22:50Z</time>
      </trkpt>
      <trkpt lat="37.07283030" lon="-8.11847805">
        <ele>11.000000</ele>
        <time>2010-01-01T01:22:56Z</time>
      </trkpt>
      <trkpt lat="37.07287310" lon="-8.11839759">
        <ele>12.000000</ele>
        <time>2010-01-01T01:22:59Z</time>
      </trkpt>
      <trkpt lat="37.07248790" lon="-8.11682045">
        <ele>8.0000000</ele>
        <time>2010-01-01T01:23:52Z</time>
      </trkpt>
      <trkpt lat="37.07211980" lon="-8.11530232">
        <ele>7.0000000</ele>
        <time>2010-01-01T01:24:42Z</time>
      </trkpt>
      <trkpt lat="37.07208550" lon="-8.11515748">
        <ele>8.0000000</ele>
        <time>2010-01-01T01:24:47Z</time>
      </trkpt>
      <trkpt lat="37.07179880" lon="-8.11518967">
        <ele>6.0000000</ele>
        <time>2010-01-01T01:24:59Z</time>
      </trkpt>
      <trkpt lat="37.07163610" lon="-8.11489462">
        <ele>7.0000000</ele>
        <time>2010-01-01T01:25:10Z</time>
      </trkpt>
      <trkpt lat="37.07146490" lon="-8.11419188">
        <ele>8.0000000</ele>
        <time>2010-01-01T01:25:34Z</time>
      </trkpt>
      <trkpt lat="37.07146920" lon="-8.11382174">
        <ele>6.0000000</ele>
        <time>2010-01-01T01:25:45Z</time>
      </trkpt>
      <trkpt lat="37.07163180" lon="-8.11361789">
        <ele>6.0000000</ele>
        <time>2010-01-01T01:25:55Z</time>
      </trkpt>
      <trkpt lat="37.07153770" lon="-8.11333894">
        <ele>6.0000000</ele>
        <time>2010-01-01T01:26:04Z</time>
      </trkpt>
      <trkpt lat="37.07031350" lon="-8.10810863">
        <ele>7.0000000</ele>
        <time>2010-01-01T01:28:58Z</time>
      </trkpt>
      <trkpt lat="37.06962000" lon="-8.10826000">
        <ele>6.0000000</ele>
        <time>2010-01-01T01:29:27Z</time>
      </trkpt>
      <trkpt lat="37.06938000" lon="-8.10830000">
        <ele>5.0000000</ele>
        <time>2010-01-01T01:29:36Z</time>
      </trkpt>
      <trkpt lat="37.06929000" lon="-8.10825000">
        <ele>5.0000000</ele>
        <time>2010-01-01T01:29:40Z</time>
      </trkpt>
      <trkpt lat="37.06902940" lon="-8.10764729">
        <ele>6.0000000</ele>
        <time>2010-01-01T01:30:02Z</time>
      </trkpt>
      <trkpt lat="37.06874000" lon="-8.10678000">
        <ele>12.000000</ele>
        <time>2010-01-01T01:30:32Z</time>
      </trkpt>
      <trkpt lat="37.06862280" lon="-8.10657978">
        <ele>12.000000</ele>
        <time>2010-01-01T01:30:40Z</time>
      </trkpt>
      <trkpt lat="37.06850000" lon="-8.10642000">
        <ele>13.000000</ele>
        <time>2010-01-01T01:30:47Z</time>
      </trkpt>
      <trkpt lat="37.06840000" lon="-8.10624000">
        <ele>14.000000</ele>
        <time>2010-01-01T01:30:54Z</time>
      </trkpt>
      <trkpt lat="37.06796000" lon="-8.10508000">
        <ele>13.000000</ele>
        <time>2010-01-01T01:31:35Z</time>
      </trkpt>
      <trkpt lat="37.06669000" lon="-8.10166000">
        <ele>15.000000</ele>
        <time>2010-01-01T01:33:36Z</time>
      </trkpt>
      <trkpt lat="37.06651000" lon="-8.10113000">
        <ele>15.000000</ele>
        <time>2010-01-01T01:33:54Z</time>
      </trkpt>
      <trkpt lat="37.06380730" lon="-8.09401631">
        <ele>8.0000000</ele>
        <time>2010-01-01T01:38:06Z</time>
      </trkpt>
      <trkpt lat="37.06324220" lon="-8.09225678">
        <ele>9.0000000</ele>
        <time>2010-01-01T01:39:06Z</time>
      </trkpt>
      <trkpt lat="37.06248880" lon="-8.09042215">
        <ele>11.000000</ele>
        <time>2010-01-01T01:40:12Z</time>
      </trkpt>
      <trkpt lat="37.06251880" lon="-8.09015929">
        <ele>10.000000</ele>
        <time>2010-01-01T01:40:21Z</time>
      </trkpt>
      <trkpt lat="37.06367030" lon="-8.08942437">
        <ele>12.000000</ele>
        <time>2010-01-01T01:41:12Z</time>
      </trkpt>
      <trkpt lat="37.06174400" lon="-8.08785796">
        <ele>7.0000000</ele>
        <time>2010-01-01T01:42:44Z</time>
      </trkpt>
      <trkpt lat="37.06146570" lon="-8.08786332">
        <ele>8.0000000</ele>
        <time>2010-01-01T01:42:56Z</time>
      </trkpt>
      <trkpt lat="37.06138010" lon="-8.08783650">
        <ele>8.0000000</ele>
        <time>2010-01-01T01:42:59Z</time>
      </trkpt>
      <trkpt lat="37.06129880" lon="-8.08769702">
        <ele>9.0000000</ele>
        <time>2010-01-01T01:43:05Z</time>
      </trkpt>
      <trkpt lat="37.06115750" lon="-8.08729469">
        <ele>10.000000</ele>
        <time>2010-01-01T01:43:19Z</time>
      </trkpt>
      <trkpt lat="37.06092640" lon="-8.08667242">
        <ele>11.000000</ele>
        <time>2010-01-01T01:43:41Z</time>
      </trkpt>
      <trkpt lat="37.06075080" lon="-8.08638274">
        <ele>13.000000</ele>
        <time>2010-01-01T01:43:52Z</time>
      </trkpt>
      <trkpt lat="37.06053250" lon="-8.08614134">
        <ele>14.000000</ele>
        <time>2010-01-01T01:44:04Z</time>
      </trkpt>
      <trkpt lat="37.06034850" lon="-8.08575510">
        <ele>15.000000</ele>
        <time>2010-01-01T01:44:18Z</time>
      </trkpt>
      <trkpt lat="37.05992470" lon="-8.08496654">
        <ele>12.000000</ele>
        <time>2010-01-01T01:44:49Z</time>
      </trkpt>
      <trkpt lat="37.05980000" lon="-8.08466000">
        <ele>12.000000</ele>
        <time>2010-01-01T01:45:00Z</time>
      </trkpt>
      <trkpt lat="37.05974060" lon="-8.08425843">
        <ele>12.000000</ele>
        <time>2010-01-01T01:45:13Z</time>
      </trkpt>
      <trkpt lat="37.05951800" lon="-8.08364689">
        <ele>3.0000000</ele>
        <time>2010-01-01T01:45:34Z</time>
      </trkpt>
      <trkpt lat="37.05968060" lon="-8.08358252">
        <ele>7.0000000</ele>
        <time>2010-01-01T01:45:41Z</time>
      </trkpt>
      <trkpt lat="37.06013440" lon="-8.08393120">
        <ele>10.000000</ele>
        <time>2010-01-01T01:46:02Z</time>
      </trkpt>
      <trkpt lat="37.06048970" lon="-8.08385074">
        <ele>11.000000</ele>
        <time>2010-01-01T01:46:17Z</time>
      </trkpt>
      <trkpt lat="37.06082790" lon="-8.08394193">
        <ele>13.000000</ele>
        <time>2010-01-01T01:46:31Z</time>
      </trkpt>
      <trkpt lat="37.06105000" lon="-8.08405000">
        <ele>13.000000</ele>
        <time>2010-01-01T01:46:40Z</time>
      </trkpt>
      <trkpt lat="37.06135000" lon="-8.08412000">
        <ele>12.000000</ele>
        <time>2010-01-01T01:46:52Z</time>
      </trkpt>
      <trkpt lat="37.06155000" lon="-8.08408000">
        <ele>11.000000</ele>
        <time>2010-01-01T01:47:00Z</time>
      </trkpt>
      <trkpt lat="37.06185000" lon="-8.08415000">
        <ele>12.000000</ele>
        <time>2010-01-01T01:47:13Z</time>
      </trkpt>
      <trkpt lat="37.06189000" lon="-8.08413000">
        <ele>12.000000</ele>
        <time>2010-01-01T01:47:14Z</time>
      </trkpt>
      <trkpt lat="37.06188000" lon="-8.08413000">
        <ele>12.000000</ele>
        <time>2010-01-01T01:47:15Z</time>
      </trkpt>
      <trkpt lat="37.06222000" lon="-8.08400000">
        <ele>8.0000000</ele>
        <time>2010-01-01T01:47:29Z</time>
      </trkpt>
      <trkpt lat="37.06250000" lon="-8.08368000">
        <ele>7.0000000</ele>
        <time>2010-01-01T01:47:44Z</time>
      </trkpt>
      <trkpt lat="37.06265000" lon="-8.08363000">
        <ele>9.0000000</ele>
        <time>2010-01-01T01:47:50Z</time>
      </trkpt>
      <trkpt lat="37.06287000" lon="-8.08349000">
        <ele>9.0000000</ele>
        <time>2010-01-01T01:48:00Z</time>
      </trkpt>
      <trkpt lat="37.06368000" lon="-8.08348000">
        <ele>8.0000000</ele>
        <time>2010-01-01T01:48:33Z</time>
      </trkpt>
      <trkpt lat="37.06432000" lon="-8.08337000">
        <ele>6.0000000</ele>
        <time>2010-01-01T01:48:59Z</time>
      </trkpt>
      <trkpt lat="37.06444000" lon="-8.08338000">
        <ele>6.0000000</ele>
        <time>2010-01-01T01:49:03Z</time>
      </trkpt>
      <trkpt lat="37.06509000" lon="-8.08369000">
        <ele>7.0000000</ele>
        <time>2010-01-01T01:49:31Z</time>
      </trkpt>
      <trkpt lat="37.06568000" lon="-8.08327000">
        <ele>8.0000000</ele>
        <time>2010-01-01T01:49:58Z</time>
      </trkpt>
      <trkpt lat="37.06592000" lon="-8.08315000">
        <ele>8.0000000</ele>
        <time>2010-01-01T01:50:09Z</time>
      </trkpt>
      <trkpt lat="37.06640000" lon="-8.08312000">
        <ele>13.000000</ele>
        <time>2010-01-01T01:50:28Z</time>
      </trkpt>
      <trkpt lat="37.06694000" lon="-8.08312000">
        <ele>10.000000</ele>
        <time>2010-01-01T01:50:50Z</time>
      </trkpt>
      <trkpt lat="37.06748000" lon="-8.08359000">
        <ele>13.000000</ele>
        <time>2010-01-01T01:51:16Z</time>
      </trkpt>
      <trkpt lat="37.06764000" lon="-8.08396000">
        <ele>13.000000</ele>
        <time>2010-01-01T01:51:29Z</time>
      </trkpt>
      <trkpt lat="37.06787000" lon="-8.08430000">
        <ele>12.000000</ele>
        <time>2010-01-01T01:51:44Z</time>
      </trkpt>
      <trkpt lat="37.06807000" lon="-8.08428000">
        <ele>9.0000000</ele>
        <time>2010-01-01T01:51:52Z</time>
      </trkpt>
      <trkpt lat="37.06844000" lon="-8.08417000">
        <ele>10.000000</ele>
        <time>2010-01-01T01:52:07Z</time>
      </trkpt>
      <trkpt lat="37.06872000" lon="-8.08411000">
        <ele>11.000000</ele>
        <time>2010-01-01T01:52:18Z</time>
      </trkpt>
      <trkpt lat="37.06909000" lon="-8.08398000">
        <ele>11.000000</ele>
        <time>2010-01-01T01:52:34Z</time>
      </trkpt>
      <trkpt lat="37.06923000" lon="-8.08394000">
        <ele>11.000000</ele>
        <time>2010-01-01T01:52:39Z</time>
      </trkpt>
      <trkpt lat="37.06923000" lon="-8.08389000">
        <ele>11.000000</ele>
        <time>2010-01-01T01:52:41Z</time>
      </trkpt>
      <trkpt lat="37.06921000" lon="-8.08367000">
        <ele>9.0000000</ele>
        <time>2010-01-01T01:52:48Z</time>
      </trkpt>
      <trkpt lat="37.06920000" lon="-8.08329000">
        <ele>8.0000000</ele>
        <time>2010-01-01T01:53:00Z</time>
      </trkpt>
      <trkpt lat="37.06912000" lon="-8.08309000">
        <ele>8.0000000</ele>
        <time>2010-01-01T01:53:07Z</time>
      </trkpt>
      <trkpt lat="37.06901000" lon="-8.08291000">
        <ele>8.0000000</ele>
        <time>2010-01-01T01:53:14Z</time>
      </trkpt>
      <trkpt lat="37.06904000" lon="-8.08274000">
        <ele>8.0000000</ele>
        <time>2010-01-01T01:53:20Z</time>
      </trkpt>
      <trkpt lat="37.06902000" lon="-8.08254000">
        <ele>8.0000000</ele>
        <time>2010-01-01T01:53:26Z</time>
      </trkpt>
      <trkpt lat="37.06896100" lon="-8.08163523">
        <ele>11.000000</ele>
        <time>2010-01-01T01:53:55Z</time>
      </trkpt>
      <trkpt lat="37.06891000" lon="-8.08161000">
        <ele>11.000000</ele>
        <time>2010-01-01T01:53:58Z</time>
      </trkpt>
      <trkpt lat="37.06898000" lon="-8.08138000">
        <ele>12.000000</ele>
        <time>2010-01-01T01:54:06Z</time>
      </trkpt>
      <trkpt lat="37.06909000" lon="-8.08086000">
        <ele>16.000000</ele>
        <time>2010-01-01T01:54:23Z</time>
      </trkpt>
      <trkpt lat="37.06919000" lon="-8.08077000">
        <ele>17.000000</ele>
        <time>2010-01-01T01:54:28Z</time>
      </trkpt>
      <trkpt lat="37.06916000" lon="-8.08070000">
        <ele>17.000000</ele>
        <time>2010-01-01T01:54:30Z</time>
      </trkpt>
      <trkpt lat="37.06908000" lon="-8.08047000">
        <ele>18.000000</ele>
        <time>2010-01-01T01:54:38Z</time>
      </trkpt>
      <trkpt lat="37.06871000" lon="-8.07973000">
        <ele>20.000000</ele>
        <time>2010-01-01T01:55:06Z</time>
      </trkpt>
      <trkpt lat="37.06854000" lon="-8.07914000">
        <ele>24.000000</ele>
        <time>2010-01-01T01:55:26Z</time>
      </trkpt>
      <trkpt lat="37.06879000" lon="-8.07906000">
        <ele>26.000000</ele>
        <time>2010-01-01T01:55:36Z</time>
      </trkpt>
      <trkpt lat="37.06878000" lon="-8.07906000">
        <ele>26.000000</ele>
        <time>2010-01-01T01:55:37Z</time>
      </trkpt>
      <trkpt lat="37.06877000" lon="-8.07906000">
        <ele>26.000000</ele>
        <time>2010-01-01T01:55:37Z</time>
      </trkpt>
      <trkpt lat="37.06876000" lon="-8.07815000">
        <ele>26.000000</ele>
        <time>2010-01-01T01:56:06Z</time>
      </trkpt>
      <trkpt lat="37.06870000" lon="-8.07715000">
        <ele>24.000000</ele>
        <time>2010-01-01T01:56:38Z</time>
      </trkpt>
      <trkpt lat="37.06868000" lon="-8.07596000">
        <ele>21.000000</ele>
        <time>2010-01-01T01:57:16Z</time>
      </trkpt>
      <trkpt lat="37.06840000" lon="-8.07582000">
        <ele>20.000000</ele>
        <time>2010-01-01T01:57:28Z</time>
      </trkpt>
      <trkpt lat="37.06810000" lon="-8.07575000">
        <ele>19.000000</ele>
        <time>2010-01-01T01:57:41Z</time>
      </trkpt>
      <trkpt lat="37.06754000" lon="-8.07555000">
        <ele>17.000000</ele>
        <time>2010-01-01T01:58:04Z</time>
      </trkpt>
      <trkpt lat="37.06697000" lon="-8.07539000">
        <ele>16.000000</ele>
        <time>2010-01-01T01:58:27Z</time>
      </trkpt>
      <trkpt lat="37.06651000" lon="-8.07520000">
        <ele>16.000000</ele>
        <time>2010-01-01T01:58:47Z</time>
      </trkpt>
      <trkpt lat="37.06613000" lon="-8.07393000">
        <ele>10.000000</ele>
        <time>2010-01-01T01:59:30Z</time>
      </trkpt>
      <trkpt lat="37.06616000" lon="-8.07394000">
        <ele>10.000000</ele>
        <time>2010-01-01T01:59:31Z</time>
      </trkpt>
      <trkpt lat="37.06597000" lon="-8.07386000">
        <ele>10.000000</ele>
        <time>2010-01-01T01:59:39Z</time>
      </trkpt>
      <trkpt lat="37.06573000" lon="-8.07386000">
        <ele>11.000000</ele>
        <time>2010-01-01T01:59:49Z</time>
      </trkpt>
      <trkpt lat="37.06556000" lon="-8.07375000">
        <ele>11.000000</ele>
        <time>2010-01-01T01:59:57Z</time>
      </trkpt>
      <trkpt lat="37.06506000" lon="-8.07332000">
        <ele>11.000000</ele>
        <time>2010-01-01T02:00:21Z</time>
      </trkpt>
      <trkpt lat="37.06501000" lon="-8.07297000">
        <ele>10.000000</ele>
        <time>2010-01-01T02:00:32Z</time>
      </trkpt>
      <trkpt lat="37.06495000" lon="-8.07215000">
        <ele>8.0000000</ele>
        <time>2010-01-01T02:00:59Z</time>
      </trkpt>
      <trkpt lat="37.06484000" lon="-8.07182000">
        <ele>9.0000000</ele>
        <time>2010-01-01T02:01:10Z</time>
      </trkpt>
      <trkpt lat="37.06464000" lon="-8.07151000">
        <ele>9.0000000</ele>
        <time>2010-01-01T02:01:23Z</time>
      </trkpt>
      <trkpt lat="37.06430000" lon="-8.07126000">
        <ele>10.000000</ele>
        <time>2010-01-01T02:01:38Z</time>
      </trkpt>
      <trkpt lat="37.06412000" lon="-8.07135000">
        <ele>10.000000</ele>
        <time>2010-01-01T02:01:46Z</time>
      </trkpt>
      <trkpt lat="37.06303000" lon="-8.07207000">
        <ele>7.0000000</ele>
        <time>2010-01-01T02:02:36Z</time>
      </trkpt>
      <trkpt lat="37.06183000" lon="-8.07179000">
        <ele>8.0000000</ele>
        <time>2010-01-01T02:03:24Z</time>
      </trkpt>
      <trkpt lat="37.06166000" lon="-8.07161000">
        <ele>8.0000000</ele>
        <time>2010-01-01T02:03:33Z</time>
      </trkpt>
      <trkpt lat="37.06145000" lon="-8.07108000">
        <ele>7.0000000</ele>
        <time>2010-01-01T02:03:52Z</time>
      </trkpt>
      <trkpt lat="37.06129000" lon="-8.07050000">
        <ele>6.0000000</ele>
        <time>2010-01-01T02:04:12Z</time>
      </trkpt>
      <trkpt lat="37.06100000" lon="-8.06956000">
        <ele>7.0000000</ele>
        <time>2010-01-01T02:04:44Z</time>
      </trkpt>
      <trkpt lat="37.06090000" lon="-8.06950000">
        <ele>7.0000000</ele>
        <time>2010-01-01T02:04:48Z</time>
      </trkpt>
      <trkpt lat="37.06077000" lon="-8.06953000">
        <ele>6.0000000</ele>
        <time>2010-01-01T02:04:54Z</time>
      </trkpt>
      <trkpt lat="37.06043000" lon="-8.06991000">
        <ele>7.0000000</ele>
        <time>2010-01-01T02:05:12Z</time>
      </trkpt>
      <trkpt lat="37.06030000" lon="-8.06993000">
        <ele>8.0000000</ele>
        <time>2010-01-01T02:05:17Z</time>
      </trkpt>
      <trkpt lat="37.06017000" lon="-8.06987000">
        <ele>9.0000000</ele>
        <time>2010-01-01T02:05:23Z</time>
      </trkpt>
      <trkpt lat="37.06012000" lon="-8.06971000">
        <ele>10.000000</ele>
        <time>2010-01-01T02:05:28Z</time>
      </trkpt>
      <trkpt lat="37.06015000" lon="-8.06960000">
        <ele>11.000000</ele>
        <time>2010-01-01T02:05:32Z</time>
      </trkpt>
      <trkpt lat="37.06015000" lon="-8.06961000">
        <ele>11.000000</ele>
        <time>2010-01-01T02:05:32Z</time>
      </trkpt>
      <trkpt lat="37.06081000" lon="-8.06741000">
        <ele>36.000000</ele>
        <time>2010-01-01T02:06:47Z</time>
      </trkpt>
      <trkpt lat="37.06089000" lon="-8.06704000">
        <ele>38.000000</ele>
        <time>2010-01-01T02:07:00Z</time>
      </trkpt>
      <trkpt lat="37.06088000" lon="-8.06670000">
        <ele>39.000000</ele>
        <time>2010-01-01T02:07:10Z</time>
      </trkpt>
      <trkpt lat="37.06069000" lon="-8.06610000">
        <ele>42.000000</ele>
        <time>2010-01-01T02:07:31Z</time>
      </trkpt>
      <trkpt lat="37.06073000" lon="-8.06522000">
        <ele>47.000000</ele>
        <time>2010-01-01T02:07:59Z</time>
      </trkpt>
      <trkpt lat="37.06079000" lon="-8.06484000">
        <ele>47.000000</ele>
        <time>2010-01-01T02:08:12Z</time>
      </trkpt>
      <trkpt lat="37.06065000" lon="-8.06334000">
        <ele>45.000000</ele>
        <time>2010-01-01T02:09:00Z</time>
      </trkpt>
      <trkpt lat="37.06081000" lon="-8.06256000">
        <ele>44.000000</ele>
        <time>2010-01-01T02:09:26Z</time>
      </trkpt>
      <trkpt lat="37.06087000" lon="-8.06205000">
        <ele>46.000000</ele>
        <time>2010-01-01T02:09:42Z</time>
      </trkpt>
      <trkpt lat="37.06129000" lon="-8.06106000">
        <ele>43.000000</ele>
        <time>2010-01-01T02:10:18Z</time>
      </trkpt>
      <trkpt lat="37.06129000" lon="-8.06077000">
        <ele>44.000000</ele>
        <time>2010-01-01T02:10:27Z</time>
      </trkpt>
      <trkpt lat="37.06125000" lon="-8.06047000">
        <ele>45.000000</ele>
        <time>2010-01-01T02:10:37Z</time>
      </trkpt>
      <trkpt lat="37.06114000" lon="-8.06005000">
        <ele>46.000000</ele>
        <time>2010-01-01T02:10:51Z</time>
      </trkpt>
      <trkpt lat="37.06064000" lon="-8.05951000">
        <ele>47.000000</ele>
        <time>2010-01-01T02:11:17Z</time>
      </trkpt>
      <trkpt lat="37.06050000" lon="-8.05925000">
        <ele>47.000000</ele>
        <time>2010-01-01T02:11:27Z</time>
      </trkpt>
      <trkpt lat="37.06039000" lon="-8.05898000">
        <ele>47.000000</ele>
        <time>2010-01-01T02:11:37Z</time>
      </trkpt>
      <trkpt lat="37.06038000" lon="-8.05866000">
        <ele>46.000000</ele>
        <time>2010-01-01T02:11:47Z</time>
      </trkpt>
      <trkpt lat="37.06043000" lon="-8.05833000">
        <ele>45.000000</ele>
        <time>2010-01-01T02:11:58Z</time>
      </trkpt>
      <trkpt lat="37.06033000" lon="-8.05836000">
        <ele>45.000000</ele>
        <time>2010-01-01T02:12:02Z</time>
      </trkpt>
      <trkpt lat="37.06025000" lon="-8.05831000">
        <ele>46.000000</ele>
        <time>2010-01-01T02:12:06Z</time>
      </trkpt>
      <trkpt lat="37.06021000" lon="-8.05819000">
        <ele>46.000000</ele>
        <time>2010-01-01T02:12:10Z</time>
      </trkpt>
      <trkpt lat="37.06023000" lon="-8.05811000">
        <ele>46.000000</ele>
        <time>2010-01-01T02:12:13Z</time>
      </trkpt>
      <trkpt lat="37.06028000" lon="-8.05804000">
        <ele>46.000000</ele>
        <time>2010-01-01T02:12:16Z</time>
      </trkpt>
      <trkpt lat="37.06036000" lon="-8.05802000">
        <ele>46.000000</ele>
        <time>2010-01-01T02:12:19Z</time>
      </trkpt>
      <trkpt lat="37.06042000" lon="-8.05804000">
        <ele>45.000000</ele>
        <time>2010-01-01T02:12:21Z</time>
      </trkpt>
      <trkpt lat="37.06048000" lon="-8.05813000">
        <ele>45.000000</ele>
        <time>2010-01-01T02:12:25Z</time>
      </trkpt>
      <trkpt lat="37.06064000" lon="-8.05750000">
        <ele>45.000000</ele>
        <time>2010-01-01T02:12:46Z</time>
      </trkpt>
      <trkpt lat="37.06083000" lon="-8.05673000">
        <ele>45.000000</ele>
        <time>2010-01-01T02:13:12Z</time>
      </trkpt>
      <trkpt lat="37.06127000" lon="-8.05478000">
        <ele>48.000000</ele>
        <time>2010-01-01T02:14:17Z</time>
      </trkpt>
      <trkpt lat="37.06132000" lon="-8.05305000">
        <ele>46.000000</ele>
        <time>2010-01-01T02:15:12Z</time>
      </trkpt>
      <trkpt lat="37.06145000" lon="-8.05143000">
        <ele>44.000000</ele>
        <time>2010-01-01T02:16:04Z</time>
      </trkpt>
      <trkpt lat="37.06138000" lon="-8.05142000">
        <ele>43.000000</ele>
        <time>2010-01-01T02:16:07Z</time>
      </trkpt>
      <trkpt lat="37.06131000" lon="-8.05127000">
        <ele>43.000000</ele>
        <time>2010-01-01T02:16:12Z</time>
      </trkpt>
      <trkpt lat="37.06138000" lon="-8.05113000">
        <ele>43.000000</ele>
        <time>2010-01-01T02:16:18Z</time>
      </trkpt>
      <trkpt lat="37.06145000" lon="-8.05108000">
        <ele>43.000000</ele>
        <time>2010-01-01T02:16:21Z</time>
      </trkpt>
      <trkpt lat="37.06150000" lon="-8.04950000">
        <ele>45.000000</ele>
        <time>2010-01-01T02:17:11Z</time>
      </trkpt>
      <trkpt lat="37.06143000" lon="-8.04950000">
        <ele>45.000000</ele>
        <time>2010-01-01T02:17:14Z</time>
      </trkpt>
      <trkpt lat="37.06137000" lon="-8.04935000">
        <ele>46.000000</ele>
        <time>2010-01-01T02:17:20Z</time>
      </trkpt>
      <trkpt lat="37.06143000" lon="-8.04920000">
        <ele>45.000000</ele>
        <time>2010-01-01T02:17:25Z</time>
      </trkpt>
      <trkpt lat="37.06160000" lon="-8.04623000">
        <ele>47.000000</ele>
        <time>2010-01-01T02:19:00Z</time>
      </trkpt>
      <trkpt lat="37.06154000" lon="-8.04614000">
        <ele>47.000000</ele>
        <time>2010-01-01T02:19:04Z</time>
      </trkpt>
      <trkpt lat="37.06154000" lon="-8.04606000">
        <ele>48.000000</ele>
        <time>2010-01-01T02:19:06Z</time>
      </trkpt>
      <trkpt lat="37.06158000" lon="-8.04597000">
        <ele>48.000000</ele>
        <time>2010-01-01T02:19:10Z</time>
      </trkpt>
      <trkpt lat="37.06164000" lon="-8.04593000">
        <ele>48.000000</ele>
        <time>2010-01-01T02:19:12Z</time>
      </trkpt>
      <trkpt lat="37.06174000" lon="-8.04595000">
        <ele>48.000000</ele>
        <time>2010-01-01T02:19:16Z</time>
      </trkpt>
      <trkpt lat="37.06207000" lon="-8.04305000">
        <ele>49.000000</ele>
        <time>2010-01-01T02:20:50Z</time>
      </trkpt>
      <trkpt lat="37.06216000" lon="-8.03995000">
        <ele>47.000000</ele>
        <time>2010-01-01T02:22:29Z</time>
      </trkpt>
      <trkpt lat="37.06217000" lon="-8.03846000">
        <ele>46.000000</ele>
        <time>2010-01-01T02:23:17Z</time>
      </trkpt>
      <trkpt lat="37.06214000" lon="-8.03758000">
        <ele>48.000000</ele>
        <time>2010-01-01T02:23:45Z</time>
      </trkpt>
      <trkpt lat="37.06204000" lon="-8.03162000">
        <ele>45.000000</ele>
        <time>2010-01-01T02:26:55Z</time>
      </trkpt>
      <trkpt lat="37.06179000" lon="-8.03045000">
        <ele>41.000000</ele>
        <time>2010-01-01T02:27:34Z</time>
      </trkpt>
      <trkpt lat="37.06157000" lon="-8.02955000">
        <ele>41.000000</ele>
        <time>2010-01-01T02:28:04Z</time>
      </trkpt>
      <trkpt lat="37.06111000" lon="-8.02801000">
        <ele>44.000000</ele>
        <time>2010-01-01T02:28:56Z</time>
      </trkpt>
      <trkpt lat="37.06087000" lon="-8.02740000">
        <ele>42.000000</ele>
        <time>2010-01-01T02:29:18Z</time>
      </trkpt>
      <trkpt lat="37.06066000" lon="-8.02718000">
        <ele>41.000000</ele>
        <time>2010-01-01T02:29:29Z</time>
      </trkpt>
      <trkpt lat="37.06060000" lon="-8.02711000">
        <ele>41.000000</ele>
        <time>2010-01-01T02:29:32Z</time>
      </trkpt>
      <trkpt lat="37.06050000" lon="-8.02715000">
        <ele>41.000000</ele>
        <time>2010-01-01T02:29:37Z</time>
      </trkpt>
      <trkpt lat="37.06045000" lon="-8.02714000">
        <ele>41.000000</ele>
        <time>2010-01-01T02:29:39Z</time>
      </trkpt>
      <trkpt lat="37.06039000" lon="-8.02708000">
        <ele>41.000000</ele>
        <time>2010-01-01T02:29:42Z</time>
      </trkpt>
      <trkpt lat="37.06036000" lon="-8.02699000">
        <ele>41.000000</ele>
        <time>2010-01-01T02:29:45Z</time>
      </trkpt>
      <trkpt lat="37.06037000" lon="-8.02690000">
        <ele>41.000000</ele>
        <time>2010-01-01T02:29:48Z</time>
      </trkpt>
      <trkpt lat="37.06031850" lon="-8.02677869">
        <ele>41.000000</ele>
        <time>2010-01-01T02:29:52Z</time>
      </trkpt>
      <trkpt lat="37.06007880" lon="-8.02639782">
        <ele>41.000000</ele>
        <time>2010-01-01T02:30:08Z</time>
      </trkpt>
      <trkpt lat="37.05982190" lon="-8.02550733">
        <ele>38.000000</ele>
        <time>2010-01-01T02:30:38Z</time>
      </trkpt>
      <trkpt lat="37.05982190" lon="-8.02441835">
        <ele>38.000000</ele>
        <time>2010-01-01T02:31:13Z</time>
      </trkpt>
      <trkpt lat="37.05976200" lon="-8.02385509">
        <ele>37.000000</ele>
        <time>2010-01-01T02:31:31Z</time>
      </trkpt>
      <trkpt lat="37.05958650" lon="-8.02354931">
        <ele>37.000000</ele>
        <time>2010-01-01T02:31:43Z</time>
      </trkpt>
      <trkpt lat="37.05903000" lon="-8.02327036">
        <ele>38.000000</ele>
        <time>2010-01-01T02:32:07Z</time>
      </trkpt>
      <trkpt lat="37.05826800" lon="-8.02299678">
        <ele>37.000000</ele>
        <time>2010-01-01T02:32:39Z</time>
      </trkpt>
      <trkpt lat="37.05804530" lon="-8.02307724">
        <ele>37.000000</ele>
        <time>2010-01-01T02:32:48Z</time>
      </trkpt>
      <trkpt lat="37.05722340" lon="-8.02518010">
        <ele>32.000000</ele>
        <time>2010-01-01T02:34:03Z</time>
      </trkpt>
      <trkpt lat="37.05719770" lon="-8.02544832">
        <ele>32.000000</ele>
        <time>2010-01-01T02:34:11Z</time>
      </trkpt>
      <trkpt lat="37.05656410" lon="-8.02641391">
        <ele>28.000000</ele>
        <time>2010-01-01T02:34:51Z</time>
      </trkpt>
      <trkpt lat="37.05599900" lon="-8.02701473">
        <ele>27.000000</ele>
        <time>2010-01-01T02:35:21Z</time>
      </trkpt>
      <trkpt lat="37.05480890" lon="-8.02791595">
        <ele>32.000000</ele>
        <time>2010-01-01T02:36:17Z</time>
      </trkpt>
      <trkpt lat="37.05397830" lon="-8.02877426">
        <ele>28.000000</ele>
        <time>2010-01-01T02:37:00Z</time>
      </trkpt>
      <trkpt lat="37.05328480" lon="-8.02956819">
        <ele>27.000000</ele>
        <time>2010-01-01T02:37:37Z</time>
      </trkpt>
      <trkpt lat="37.05264260" lon="-8.03024411">
        <ele>29.000000</ele>
        <time>2010-01-01T02:38:11Z</time>
      </trkpt>
      <trkpt lat="37.05154660" lon="-8.03051233">
        <ele>19.000000</ele>
        <time>2010-01-01T02:38:56Z</time>
      </trkpt>
      <trkpt lat="37.05060470" lon="-8.03048014">
        <ele>16.000000</ele>
        <time>2010-01-01T02:39:33Z</time>
      </trkpt>
      <trkpt lat="37.04966280" lon="-8.03008317">
        <ele>16.000000</ele>
        <time>2010-01-01T02:40:13Z</time>
      </trkpt>
      <trkpt lat="37.04791600" lon="-8.02928924">
        <ele>18.000000</ele>
        <time>2010-01-01T02:41:27Z</time>
      </trkpt>
      <trkpt lat="37.04613480" lon="-8.02975058">
        <ele>14.000000</ele>
        <time>2010-01-01T02:42:40Z</time>
      </trkpt>
      <trkpt lat="37.04539840" lon="-8.02956819">
        <ele>16.000000</ele>
        <time>2010-01-01T02:43:10Z</time>
      </trkpt>
      <trkpt lat="37.04413100" lon="-8.02904248">
        <ele>12.000000</ele>
        <time>2010-01-01T02:44:04Z</time>
      </trkpt>
      <trkpt lat="37.04368570" lon="-8.02864551">
        <ele>12.000000</ele>
        <time>2010-01-01T02:44:26Z</time>
      </trkpt>
      <trkpt lat="37.04311190" lon="-8.02799105">
        <ele>11.000000</ele>
        <time>2010-01-01T02:44:57Z</time>
      </trkpt>
      <trkpt lat="37.04277800" lon="-8.02776575">
        <ele>11.000000</ele>
        <time>2010-01-01T02:45:12Z</time>
      </trkpt>
      <trkpt lat="37.04179310" lon="-8.02780866">
        <ele>4.0000000</ele>
        <time>2010-01-01T02:45:51Z</time>
      </trkpt>
      <trkpt lat="37.03952370" lon="-8.02800178">
        <ele>5.0000000</ele>
        <time>2010-01-01T02:47:22Z</time>
      </trkpt>
      <trkpt lat="37.03893280" lon="-8.02791595">
        <ele>7.0000000</ele>
        <time>2010-01-01T02:47:46Z</time>
      </trkpt>
      <trkpt lat="37.03683460" lon="-8.02690744">
        <ele>8.0000000</ele>
        <time>2010-01-01T02:49:16Z</time>
      </trkpt>
      <trkpt lat="37.03570410" lon="-8.02655339">
        <ele>6.0000000</ele>
        <time>2010-01-01T02:50:03Z</time>
      </trkpt>
      <trkpt lat="37.03531010" lon="-8.02671432">
        <ele>3.0000000</ele>
        <time>2010-01-01T02:50:19Z</time>
      </trkpt>
      <trkpt lat="37.03518170" lon="-8.02661776">
        <ele>4.0000000</ele>
        <time>2010-01-01T02:50:25Z</time>
      </trkpt>
      <trkpt lat="37.03501040" lon="-8.02574872">
        <ele>6.0000000</ele>
        <time>2010-01-01T02:50:54Z</time>
      </trkpt>
      <trkpt lat="37.03488190" lon="-8.02557706">
        <ele>6.0000000</ele>
        <time>2010-01-01T02:51:01Z</time>
      </trkpt>
      <trkpt lat="37.03470210" lon="-8.02492260">
        <ele>6.0000000</ele>
        <time>2010-01-01T02:51:24Z</time>
      </trkpt>
      <trkpt lat="37.03479630" lon="-8.02448272">
        <ele>6.0000000</ele>
        <time>2010-01-01T02:51:38Z</time>
      </trkpt>
      <trkpt lat="37.03498470" lon="-8.02395701">
        <ele>6.0000000</ele>
        <time>2010-01-01T02:51:57Z</time>
      </trkpt>
      <trkpt lat="37.03505320" lon="-8.02371025">
        <ele>7.0000000</ele>
        <time>2010-01-01T02:52:05Z</time>
      </trkpt>
      <trkpt lat="37.03491620" lon="-8.02337765">
        <ele>8.0000000</ele>
        <time>2010-01-01T02:52:17Z</time>
      </trkpt>
      <trkpt lat="37.03464210" lon="-8.02296996">
        <ele>9.0000000</ele>
        <time>2010-01-01T02:52:34Z</time>
      </trkpt>
      <trkpt lat="37.03435950" lon="-8.02280902">
        <ele>9.0000000</ele>
        <time>2010-01-01T02:52:46Z</time>
      </trkpt>
      <trkpt lat="37.03435950" lon="-8.02328109">
        <ele>7.0000000</ele>
        <time>2010-01-01T02:53:01Z</time>
      </trkpt>
      <trkpt lat="37.03344310" lon="-8.02408576">
        <ele>9.0000000</ele>
        <time>2010-01-01T02:53:46Z</time>
      </trkpt>
      <trkpt lat="37.03276220" lon="-8.02432715">
        <ele>8.0000000</ele>
        <time>2010-01-01T02:54:15Z</time>
      </trkpt>
      <trkpt lat="37.03202130" lon="-8.02470803">
        <ele>10.000000</ele>
        <time>2010-01-01T02:54:47Z</time>
      </trkpt>
      <trkpt lat="37.03155020" lon="-8.02492260">
        <ele>10.000000</ele>
        <time>2010-01-01T02:55:07Z</time>
      </trkpt>
      <trkpt lat="37.03140460" lon="-8.02529275">
        <ele>6.0000000</ele>
        <time>2010-01-01T02:55:20Z</time>
      </trkpt>
      <trkpt lat="37.03097210" lon="-8.02513182">
        <ele>4.0000000</ele>
        <time>2010-01-01T02:55:38Z</time>
      </trkpt>
      <trkpt lat="37.03065950" lon="-8.02442371">
        <ele>4.0000000</ele>
        <time>2010-01-01T02:56:04Z</time>
      </trkpt>
      <trkpt lat="37.03011990" lon="-8.02366733">
        <ele>8.0000000</ele>
        <time>2010-01-01T02:56:36Z</time>
      </trkpt>
      <trkpt lat="37.02957170" lon="-8.02297532">
        <ele>10.000000</ele>
        <time>2010-01-01T02:57:07Z</time>
      </trkpt>
      <trkpt lat="37.02932330" lon="-8.02277147">
        <ele>10.000000</ele>
        <time>2010-01-01T02:57:19Z</time>
      </trkpt>
      <trkpt lat="37.02904930" lon="-8.02246570">
        <ele>10.000000</ele>
        <time>2010-01-01T02:57:34Z</time>
      </trkpt>
      <trkpt lat="37.02872380" lon="-8.02203118">
        <ele>7.0000000</ele>
        <time>2010-01-01T02:57:53Z</time>
      </trkpt>
      <trkpt lat="37.02849680" lon="-8.02148938">
        <ele>6.0000000</ele>
        <time>2010-01-01T02:58:13Z</time>
      </trkpt>
      <trkpt lat="37.02830840" lon="-8.02109241">
        <ele>4.0000000</ele>
        <time>2010-01-01T02:58:27Z</time>
      </trkpt>
      <trkpt lat="37.02809850" lon="-8.02089929">
        <ele>4.0000000</ele>
        <time>2010-01-01T02:58:38Z</time>
      </trkpt>
      <trkpt lat="37.02784160" lon="-8.02075445">
        <ele>4.0000000</ele>
        <time>2010-01-01T02:58:49Z</time>
      </trkpt>
      <trkpt lat="37.02729770" lon="-8.02028775">
        <ele>2.0000000</ele>
        <time>2010-01-01T02:59:15Z</time>
      </trkpt>
      <trkpt lat="37.02694220" lon="-8.01979422">
        <ele>4.0000000</ele>
        <time>2010-01-01T02:59:37Z</time>
      </trkpt>
      <trkpt lat="37.02672810" lon="-8.01959037">
        <ele>2.0000000</ele>
        <time>2010-01-01T02:59:47Z</time>
      </trkpt>
      <trkpt lat="37.02659960" lon="-8.01925241">
        <ele>3.0000000</ele>
        <time>2010-01-01T02:59:59Z</time>
      </trkpt>
      <trkpt lat="37.02650110" lon="-8.01912367">
        <ele>3.0000000</ele>
        <time>2010-01-01T03:00:05Z</time>
      </trkpt>
      <trkpt lat="37.02623130" lon="-8.01892518">
        <ele>4.0000000</ele>
        <time>2010-01-01T03:00:18Z</time>
      </trkpt>
      <trkpt lat="37.02591860" lon="-8.01823318">
        <ele>5.0000000</ele>
        <time>2010-01-01T03:00:43Z</time>
      </trkpt>
      <trkpt lat="37.02524200" lon="-8.01741242">
        <ele>3.0000000</ele>
        <time>2010-01-01T03:01:21Z</time>
      </trkpt>
      <trkpt lat="37.02495500" lon="-8.01644146">
        <ele>1.0000000</ele>
        <time>2010-01-01T03:01:54Z</time>
      </trkpt>
      <trkpt lat="37.02474090" lon="-8.01644146">
        <ele>1.0000000</ele>
        <time>2010-01-01T03:02:02Z</time>
      </trkpt>
      <trkpt lat="37.02462950" lon="-8.01637709">
        <ele>2.0000000</ele>
        <time>2010-01-01T03:02:07Z</time>
      </trkpt>
      <trkpt lat="37.02453960" lon="-8.01628589">
        <ele>2.0000000</ele>
        <time>2010-01-01T03:02:12Z</time>
      </trkpt>
      <trkpt lat="37.02448820" lon="-8.01609814">
        <ele>3.0000000</ele>
        <time>2010-01-01T03:02:18Z</time>
      </trkpt>
      <trkpt lat="37.02453100" lon="-8.01589965">
        <ele>3.0000000</ele>
        <time>2010-01-01T03:02:25Z</time>
      </trkpt>
      <trkpt lat="37.02466380" lon="-8.01578164">
        <ele>4.0000000</ele>
        <time>2010-01-01T03:02:31Z</time>
      </trkpt>
      <trkpt lat="37.02475800" lon="-8.01553487">
        <ele>5.0000000</ele>
        <time>2010-01-01T03:02:40Z</time>
      </trkpt>
      <trkpt lat="37.02469000" lon="-8.01546000">
        <ele>4.0000000</ele>
        <time>2010-01-01T03:02:44Z</time>
      </trkpt>
      <trkpt lat="37.02467000" lon="-8.01545000">
        <ele>4.0000000</ele>
        <time>2010-01-01T03:02:45Z</time>
      </trkpt>
      <trkpt lat="37.02145000" lon="-8.00740000">
        <ele>1.0000000</ele>
        <time>2010-01-01T03:07:32Z</time>
      </trkpt>
      <trkpt lat="37.01887000" lon="-8.00084000">
        <ele>1.0000000</ele>
        <time>2010-01-01T03:11:26Z</time>
      </trkpt>
      <trkpt lat="37.01647000" lon="-7.99129000">
        <ele>0.0000000</ele>
        <time>2010-01-01T03:16:46Z</time>
      </trkpt>
      <trkpt lat="37.01648000" lon="-7.99099000">
        <ele>0.0000000</ele>
        <time>2010-01-01T03:16:56Z</time>
      </trkpt>
      <trkpt lat="37.01652000" lon="-7.99057000">
        <ele>-2.000000</ele>
        <time>2010-01-01T03:17:09Z</time>
      </trkpt>
      <trkpt lat="37.01687000" lon="-7.98823000">
        <ele>1.0000000</ele>
        <time>2010-01-01T03:18:25Z</time>
      </trkpt>
      <trkpt lat="37.01602910" lon="-7.98820853">
        <ele>0.0000000</ele>
        <time>2010-01-01T03:18:59Z</time>
      </trkpt>
      <trkpt lat="37.01540370" lon="-7.98812270">
        <ele>0.0000000</ele>
        <time>2010-01-01T03:19:24Z</time>
      </trkpt>
      <trkpt lat="37.01461990" lon="-7.98800468">
        <ele>0.0000000</ele>
        <time>2010-01-01T03:19:56Z</time>
      </trkpt>
      <trkpt lat="37.01459420" lon="-7.98781156">
        <ele>0.0000000</ele>
        <time>2010-01-01T03:20:02Z</time>
      </trkpt>
      <trkpt lat="37.01473130" lon="-7.98752725">
        <ele>0.0000000</ele>
        <time>2010-01-01T03:20:13Z</time>
      </trkpt>
      <trkpt lat="37.01562220" lon="-7.98660457">
        <ele>1.0000000</ele>
        <time>2010-01-01T03:20:59Z</time>
      </trkpt>
      <trkpt lat="37.01562650" lon="-7.98643827">
        <ele>2.0000000</ele>
        <time>2010-01-01T03:21:04Z</time>
      </trkpt>
      <trkpt lat="37.01558360" lon="-7.98617005">
        <ele>3.0000000</ele>
        <time>2010-01-01T03:21:13Z</time>
      </trkpt>
      <trkpt lat="37.01558360" lon="-7.98518836">
        <ele>3.0000000</ele>
        <time>2010-01-01T03:21:44Z</time>
      </trkpt>
      <trkpt lat="37.01548080" lon="-7.98414230">
        <ele>7.0000000</ele>
        <time>2010-01-01T03:22:18Z</time>
      </trkpt>
      <trkpt lat="37.01536520" lon="-7.98331618">
        <ele>8.0000000</ele>
        <time>2010-01-01T03:22:45Z</time>
      </trkpt>
      <trkpt lat="37.01518960" lon="-7.98205554">
        <ele>5.0000000</ele>
        <time>2010-01-01T03:23:26Z</time>
      </trkpt>
      <trkpt lat="37.01489830" lon="-7.98002779">
        <ele>4.0000000</ele>
        <time>2010-01-01T03:24:32Z</time>
      </trkpt>
      <trkpt lat="37.01472700" lon="-7.97881543">
        <ele>2.0000000</ele>
        <time>2010-01-01T03:25:11Z</time>
      </trkpt>
      <trkpt lat="37.01455990" lon="-7.97768890">
        <ele>4.0000000</ele>
        <time>2010-01-01T03:25:48Z</time>
      </trkpt>
      <trkpt lat="37.01444000" lon="-7.97764599">
        <ele>4.0000000</ele>
        <time>2010-01-01T03:25:53Z</time>
      </trkpt>
      <trkpt lat="37.01417870" lon="-7.97784447">
        <ele>4.0000000</ele>
        <time>2010-01-01T03:26:05Z</time>
      </trkpt>
      <trkpt lat="37.01399880" lon="-7.97787666">
        <ele>4.0000000</ele>
        <time>2010-01-01T03:26:12Z</time>
      </trkpt>
      <trkpt lat="37.01244820" lon="-7.97756552">
        <ele>0.0000000</ele>
        <time>2010-01-01T03:27:15Z</time>
      </trkpt>
      <trkpt lat="37.01191700" lon="-7.97533929">
        <ele>4.0000000</ele>
        <time>2010-01-01T03:28:29Z</time>
      </trkpt>
      <trkpt lat="37.01163860" lon="-7.97412157">
        <ele>3.0000000</ele>
        <time>2010-01-01T03:29:10Z</time>
      </trkpt>
      <trkpt lat="37.01146730" lon="-7.97349929">
        <ele>4.0000000</ele>
        <time>2010-01-01T03:29:31Z</time>
      </trkpt>
      <trkpt lat="37.01136870" lon="-7.97317206">
        <ele>3.0000000</ele>
        <time>2010-01-01T03:29:42Z</time>
      </trkpt>
      <trkpt lat="37.01135160" lon="-7.97290384">
        <ele>2.0000000</ele>
        <time>2010-01-01T03:29:50Z</time>
      </trkpt>
      <trkpt lat="37.01155720" lon="-7.97272682">
        <ele>3.0000000</ele>
        <time>2010-01-01T03:30:00Z</time>
      </trkpt>
      <trkpt lat="37.01255530" lon="-7.97204554">
        <ele>3.0000000</ele>
        <time>2010-01-01T03:30:46Z</time>
      </trkpt>
      <trkpt lat="37.01312070" lon="-7.97157347">
        <ele>3.0000000</ele>
        <time>2010-01-01T03:31:13Z</time>
      </trkpt>
      <trkpt lat="37.01373320" lon="-7.97099947">
        <ele>3.0000000</ele>
        <time>2010-01-01T03:31:44Z</time>
      </trkpt>
      <trkpt lat="37.01350190" lon="-7.96928286">
        <ele>3.0000000</ele>
        <time>2010-01-01T03:32:39Z</time>
      </trkpt>
      <trkpt lat="37.01336480" lon="-7.96831190">
        <ele>5.0000000</ele>
        <time>2010-01-01T03:33:11Z</time>
      </trkpt>
      <trkpt lat="37.01323630" lon="-7.96741068">
        <ele>3.0000000</ele>
        <time>2010-01-01T03:33:40Z</time>
      </trkpt>
      <trkpt lat="37.01312070" lon="-7.96728193">
        <ele>3.0000000</ele>
        <time>2010-01-01T03:33:46Z</time>
      </trkpt>
      <trkpt lat="37.01270950" lon="-7.96739995">
        <ele>0.0000000</ele>
        <time>2010-01-01T03:34:03Z</time>
      </trkpt>
      <trkpt lat="37.01240110" lon="-7.96743214">
        <ele>0.0000000</ele>
        <time>2010-01-01T03:34:16Z</time>
      </trkpt>
      <trkpt lat="37.01229400" lon="-7.96743214">
        <ele>1.0000000</ele>
        <time>2010-01-01T03:34:20Z</time>
      </trkpt>
      <trkpt lat="37.01221260" lon="-7.96730875">
        <ele>2.0000000</ele>
        <time>2010-01-01T03:34:25Z</time>
      </trkpt>
      <trkpt lat="37.01157010" lon="-7.96537220">
        <ele>2.0000000</ele>
        <time>2010-01-01T03:35:32Z</time>
      </trkpt>
      <trkpt lat="37.01166430" lon="-7.96507716">
        <ele>2.0000000</ele>
        <time>2010-01-01T03:35:42Z</time>
      </trkpt>
      <trkpt lat="37.01180570" lon="-7.96433687">
        <ele>0.0000000</ele>
        <time>2010-01-01T03:36:07Z</time>
      </trkpt>
      <trkpt lat="37.01142440" lon="-7.96319425">
        <ele>5.0000000</ele>
        <time>2010-01-01T03:36:46Z</time>
      </trkpt>
      <trkpt lat="37.01148870" lon="-7.96309232">
        <ele>6.0000000</ele>
        <time>2010-01-01T03:36:50Z</time>
      </trkpt>
      <trkpt lat="37.01189130" lon="-7.96267390">
        <ele>5.0000000</ele>
        <time>2010-01-01T03:37:11Z</time>
      </trkpt>
      <trkpt lat="37.01202410" lon="-7.96233057">
        <ele>5.0000000</ele>
        <time>2010-01-01T03:37:23Z</time>
      </trkpt>
      <trkpt lat="37.01203700" lon="-7.96219110">
        <ele>5.0000000</ele>
        <time>2010-01-01T03:37:28Z</time>
      </trkpt>
      <trkpt lat="37.01201980" lon="-7.96203553">
        <ele>5.0000000</ele>
        <time>2010-01-01T03:37:33Z</time>
      </trkpt>
      <trkpt lat="37.01201980" lon="-7.96185314">
        <ele>5.0000000</ele>
        <time>2010-01-01T03:37:39Z</time>
      </trkpt>
      <trkpt lat="37.01223830" lon="-7.96129524">
        <ele>5.0000000</ele>
        <time>2010-01-01T03:37:59Z</time>
      </trkpt>
      <trkpt lat="37.01207980" lon="-7.96049594">
        <ele>4.0000000</ele>
        <time>2010-01-01T03:38:25Z</time>
      </trkpt>
      <trkpt lat="37.01201130" lon="-7.96012043">
        <ele>3.0000000</ele>
        <time>2010-01-01T03:38:37Z</time>
      </trkpt>
      <trkpt lat="37.01186560" lon="-7.95980393">
        <ele>-1.000000</ele>
        <time>2010-01-01T03:38:49Z</time>
      </trkpt>
      <trkpt lat="37.01134730" lon="-7.95891880">
        <ele>5.0000000</ele>
        <time>2010-01-01T03:39:24Z</time>
      </trkpt>
      <trkpt lat="37.01166860" lon="-7.95861840">
        <ele>6.0000000</ele>
        <time>2010-01-01T03:39:40Z</time>
      </trkpt>
      <trkpt lat="37.01172000" lon="-7.95846819">
        <ele>7.0000000</ele>
        <time>2010-01-01T03:39:45Z</time>
      </trkpt>
      <trkpt lat="37.01175000" lon="-7.95820534">
        <ele>8.0000000</ele>
        <time>2010-01-01T03:39:54Z</time>
      </trkpt>
      <trkpt lat="37.01168140" lon="-7.95756697">
        <ele>5.0000000</ele>
        <time>2010-01-01T03:40:14Z</time>
      </trkpt>
      <trkpt lat="37.01159580" lon="-7.95715391">
        <ele>2.0000000</ele>
        <time>2010-01-01T03:40:28Z</time>
      </trkpt>
      <trkpt lat="37.01155720" lon="-7.95688033">
        <ele>2.0000000</ele>
        <time>2010-01-01T03:40:37Z</time>
      </trkpt>
      <trkpt lat="37.01169000" lon="-7.95666575">
        <ele>3.0000000</ele>
        <time>2010-01-01T03:40:46Z</time>
      </trkpt>
      <trkpt lat="37.01200700" lon="-7.95645654">
        <ele>5.0000000</ele>
        <time>2010-01-01T03:41:00Z</time>
      </trkpt>
      <trkpt lat="37.01229400" lon="-7.95632243">
        <ele>5.0000000</ele>
        <time>2010-01-01T03:41:12Z</time>
      </trkpt>
      <trkpt lat="37.01245250" lon="-7.95619904">
        <ele>3.0000000</ele>
        <time>2010-01-01T03:41:20Z</time>
      </trkpt>
      <trkpt lat="37.01255100" lon="-7.95595765">
        <ele>3.0000000</ele>
        <time>2010-01-01T03:41:28Z</time>
      </trkpt>
      <trkpt lat="37.01249100" lon="-7.95540511">
        <ele>1.0000000</ele>
        <time>2010-01-01T03:41:46Z</time>
      </trkpt>
      <trkpt lat="37.01255530" lon="-7.95536220">
        <ele>1.0000000</ele>
        <time>2010-01-01T03:41:49Z</time>
      </trkpt>
      <trkpt lat="37.01243960" lon="-7.95443952">
        <ele>1.0000000</ele>
        <time>2010-01-01T03:42:19Z</time>
      </trkpt>
      <trkpt lat="37.01235390" lon="-7.95376360">
        <ele>3.0000000</ele>
        <time>2010-01-01T03:42:41Z</time>
      </trkpt>
      <trkpt lat="37.01235390" lon="-7.95341491">
        <ele>3.0000000</ele>
        <time>2010-01-01T03:42:52Z</time>
      </trkpt>
      <trkpt lat="37.01242680" lon="-7.95325934">
        <ele>3.0000000</ele>
        <time>2010-01-01T03:42:58Z</time>
      </trkpt>
      <trkpt lat="37.01270090" lon="-7.95312523">
        <ele>3.0000000</ele>
        <time>2010-01-01T03:43:10Z</time>
      </trkpt>
      <trkpt lat="37.01292370" lon="-7.95321106">
        <ele>2.0000000</ele>
        <time>2010-01-01T03:43:19Z</time>
      </trkpt>
      <trkpt lat="37.01305220" lon="-7.95360803">
        <ele>2.0000000</ele>
        <time>2010-01-01T03:43:33Z</time>
      </trkpt>
      <trkpt lat="37.01327060" lon="-7.95473456">
        <ele>2.0000000</ele>
        <time>2010-01-01T03:44:10Z</time>
      </trkpt>
      <trkpt lat="37.01334770" lon="-7.95537829">
        <ele>3.0000000</ele>
        <time>2010-01-01T03:44:30Z</time>
      </trkpt>
      <trkpt lat="37.01348480" lon="-7.95588254">
        <ele>1.0000000</ele>
        <time>2010-01-01T03:44:47Z</time>
      </trkpt>
      <trkpt lat="37.01359190" lon="-7.95600056">
        <ele>1.0000000</ele>
        <time>2010-01-01T03:44:53Z</time>
      </trkpt>
      <trkpt lat="37.01381030" lon="-7.95607566">
        <ele>2.0000000</ele>
        <time>2010-01-01T03:45:02Z</time>
      </trkpt>
      <trkpt lat="37.01423010" lon="-7.95607030">
        <ele>2.0000000</ele>
        <time>2010-01-01T03:45:19Z</time>
      </trkpt>
      <trkpt lat="37.01444860" lon="-7.95617759">
        <ele>1.0000000</ele>
        <time>2010-01-01T03:45:28Z</time>
      </trkpt>
      <trkpt lat="37.01474840" lon="-7.95658528">
        <ele>1.0000000</ele>
        <time>2010-01-01T03:45:46Z</time>
      </trkpt>
      <trkpt lat="37.01503970" lon="-7.95714318">
        <ele>2.0000000</ele>
        <time>2010-01-01T03:46:07Z</time>
      </trkpt>
      <trkpt lat="37.01545090" lon="-7.95771718">
        <ele>0.0000000</ele>
        <time>2010-01-01T03:46:32Z</time>
      </trkpt>
      <trkpt lat="37.01554510" lon="-7.95776009">
        <ele>0.0000000</ele>
        <time>2010-01-01T03:46:36Z</time>
      </trkpt>
      <trkpt lat="37.01564360" lon="-7.95774936">
        <ele>0.0000000</ele>
        <time>2010-01-01T03:46:40Z</time>
      </trkpt>
      <trkpt lat="37.01623900" lon="-7.95759379">
        <ele>1.0000000</ele>
        <time>2010-01-01T03:47:04Z</time>
      </trkpt>
      <trkpt lat="37.01644460" lon="-7.95765817">
        <ele>1.0000000</ele>
        <time>2010-01-01T03:47:13Z</time>
      </trkpt>
      <trkpt lat="37.01660740" lon="-7.95766353">
        <ele>1.0000000</ele>
        <time>2010-01-01T03:47:19Z</time>
      </trkpt>
      <trkpt lat="37.01683440" lon="-7.95745968">
        <ele>1.0000000</ele>
        <time>2010-01-01T03:47:31Z</time>
      </trkpt>
      <trkpt lat="37.01715130" lon="-7.95776009">
        <ele>0.0000000</ele>
        <time>2010-01-01T03:47:46Z</time>
      </trkpt>
      <trkpt lat="37.01733120" lon="-7.95906901">
        <ele>5.0000000</ele>
        <time>2010-01-01T03:48:29Z</time>
      </trkpt>
      <trkpt lat="37.01759680" lon="-7.96006679">
        <ele>3.0000000</ele>
        <time>2010-01-01T03:49:03Z</time>
      </trkpt>
      <trkpt lat="37.01773390" lon="-7.96050667">
        <ele>2.0000000</ele>
        <time>2010-01-01T03:49:18Z</time>
      </trkpt>
      <trkpt lat="37.01803370" lon="-7.96065688">
        <ele>3.0000000</ele>
        <time>2010-01-01T03:49:31Z</time>
      </trkpt>
      <trkpt lat="37.01961840" lon="-7.96326398">
        <ele>3.0000000</ele>
        <time>2010-01-01T03:51:15Z</time>
      </trkpt>
      <trkpt lat="37.02026000" lon="-7.96222000">
        <ele>4.0000000</ele>
        <time>2010-01-01T03:51:57Z</time>
      </trkpt>
      <trkpt lat="37.02095000" lon="-7.96104000">
        <ele>4.0000000</ele>
        <time>2010-01-01T03:52:44Z</time>
      </trkpt>
      <trkpt lat="37.02161000" lon="-7.96044000">
        <ele>6.0000000</ele>
        <time>2010-01-01T03:53:17Z</time>
      </trkpt>
      <trkpt lat="37.02232000" lon="-7.95976000">
        <ele>9.0000000</ele>
        <time>2010-01-01T03:53:53Z</time>
      </trkpt>
      <trkpt lat="37.02255000" lon="-7.95971000">
        <ele>9.0000000</ele>
        <time>2010-01-01T03:54:02Z</time>
      </trkpt>
      <trkpt lat="37.02254000" lon="-7.95971000">
        <ele>9.0000000</ele>
        <time>2010-01-01T03:54:02Z</time>
      </trkpt>
      <trkpt lat="37.02258000" lon="-7.95970000">
        <ele>9.0000000</ele>
        <time>2010-01-01T03:54:04Z</time>
      </trkpt>
      <trkpt lat="37.02264000" lon="-7.95953000">
        <ele>9.0000000</ele>
        <time>2010-01-01T03:54:10Z</time>
      </trkpt>
      <trkpt lat="37.02286000" lon="-7.95944000">
        <ele>7.0000000</ele>
        <time>2010-01-01T03:54:19Z</time>
      </trkpt>
      <trkpt lat="37.02347000" lon="-7.95936000">
        <ele>6.0000000</ele>
        <time>2010-01-01T03:54:44Z</time>
      </trkpt>
      <trkpt lat="37.02369000" lon="-7.95928000">
        <ele>7.0000000</ele>
        <time>2010-01-01T03:54:53Z</time>
      </trkpt>
      <trkpt lat="37.02402000" lon="-7.95883000">
        <ele>8.0000000</ele>
        <time>2010-01-01T03:55:12Z</time>
      </trkpt>
      <trkpt lat="37.02426000" lon="-7.95870000">
        <ele>7.0000000</ele>
        <time>2010-01-01T03:55:23Z</time>
      </trkpt>
      <trkpt lat="37.02475000" lon="-7.95857000">
        <ele>6.0000000</ele>
        <time>2010-01-01T03:55:43Z</time>
      </trkpt>
      <trkpt lat="37.02500000" lon="-7.95841000">
        <ele>4.0000000</ele>
        <time>2010-01-01T03:55:54Z</time>
      </trkpt>
      <trkpt lat="37.02563000" lon="-7.95826000">
        <ele>9.0000000</ele>
        <time>2010-01-01T03:56:20Z</time>
      </trkpt>
      <trkpt lat="37.02594000" lon="-7.95810000">
        <ele>11.000000</ele>
        <time>2010-01-01T03:56:33Z</time>
      </trkpt>
      <trkpt lat="37.02632000" lon="-7.95784000">
        <ele>10.000000</ele>
        <time>2010-01-01T03:56:51Z</time>
      </trkpt>
      <trkpt lat="37.02656000" lon="-7.95770000">
        <ele>9.0000000</ele>
        <time>2010-01-01T03:57:01Z</time>
      </trkpt>
      <trkpt lat="37.02715000" lon="-7.95743000">
        <ele>9.0000000</ele>
        <time>2010-01-01T03:57:26Z</time>
      </trkpt>
      <trkpt lat="37.02759000" lon="-7.95727000">
        <ele>9.0000000</ele>
        <time>2010-01-01T03:57:45Z</time>
      </trkpt>
      <trkpt lat="37.02894000" lon="-7.95687000">
        <ele>8.0000000</ele>
        <time>2010-01-01T03:58:40Z</time>
      </trkpt>
      <trkpt lat="37.02979000" lon="-7.95656000">
        <ele>6.0000000</ele>
        <time>2010-01-01T03:59:16Z</time>
      </trkpt>
      <trkpt lat="37.02980000" lon="-7.95679000">
        <ele>7.0000000</ele>
        <time>2010-01-01T03:59:23Z</time>
      </trkpt>
      <trkpt lat="37.03095000" lon="-7.95630000">
        <ele>6.0000000</ele>
        <time>2010-01-01T04:00:12Z</time>
      </trkpt>
      <trkpt lat="37.03095000" lon="-7.95631000">
        <ele>7.0000000</ele>
        <time>2010-01-01T04:00:12Z</time>
      </trkpt>
      <trkpt lat="37.03095000" lon="-7.95630000">
        <ele>6.0000000</ele>
        <time>2010-01-01T04:00:12Z</time>
      </trkpt>
      <trkpt lat="37.03186710" lon="-7.95588254">
        <ele>8.0000000</ele>
        <time>2010-01-01T04:00:51Z</time>
      </trkpt>
      <trkpt lat="37.03188000" lon="-7.95591000">
        <ele>8.0000000</ele>
        <time>2010-01-01T04:00:52Z</time>
      </trkpt>
      <trkpt lat="37.03197000" lon="-7.95575000">
        <ele>7.0000000</ele>
        <time>2010-01-01T04:00:59Z</time>
      </trkpt>
      <trkpt lat="37.03215000" lon="-7.95560000">
        <ele>6.0000000</ele>
        <time>2010-01-01T04:01:07Z</time>
      </trkpt>
      <trkpt lat="37.03258000" lon="-7.95545000">
        <ele>7.0000000</ele>
        <time>2010-01-01T04:01:25Z</time>
      </trkpt>
      <trkpt lat="37.03285000" lon="-7.95532000">
        <ele>7.0000000</ele>
        <time>2010-01-01T04:01:37Z</time>
      </trkpt>
      <trkpt lat="37.03302000" lon="-7.95513000">
        <ele>6.0000000</ele>
        <time>2010-01-01T04:01:46Z</time>
      </trkpt>
      <trkpt lat="37.03306000" lon="-7.95505000">
        <ele>6.0000000</ele>
        <time>2010-01-01T04:01:49Z</time>
      </trkpt>
      <trkpt lat="37.03305000" lon="-7.95505000">
        <ele>6.0000000</ele>
        <time>2010-01-01T04:01:49Z</time>
      </trkpt>
      <trkpt lat="37.03312000" lon="-7.95485000">
        <ele>6.0000000</ele>
        <time>2010-01-01T04:01:56Z</time>
      </trkpt>
      <trkpt lat="37.03325000" lon="-7.95375000">
        <ele>6.0000000</ele>
        <time>2010-01-01T04:02:32Z</time>
      </trkpt>
      <trkpt lat="37.03324000" lon="-7.95357000">
        <ele>6.0000000</ele>
        <time>2010-01-01T04:02:38Z</time>
      </trkpt>
      <trkpt lat="37.03312000" lon="-7.95302000">
        <ele>5.0000000</ele>
        <time>2010-01-01T04:02:56Z</time>
      </trkpt>
      <trkpt lat="37.03309000" lon="-7.95281000">
        <ele>4.0000000</ele>
        <time>2010-01-01T04:03:03Z</time>
      </trkpt>
      <trkpt lat="37.03307000" lon="-7.95257000">
        <ele>4.0000000</ele>
        <time>2010-01-01T04:03:10Z</time>
      </trkpt>
      <trkpt lat="37.03308000" lon="-7.95235000">
        <ele>3.0000000</ele>
        <time>2010-01-01T04:03:17Z</time>
      </trkpt>
      <trkpt lat="37.03313000" lon="-7.95218000">
        <ele>3.0000000</ele>
        <time>2010-01-01T04:03:23Z</time>
      </trkpt>
      <trkpt lat="37.03324000" lon="-7.95195000">
        <ele>4.0000000</ele>
        <time>2010-01-01T04:03:32Z</time>
      </trkpt>
      <trkpt lat="37.03324000" lon="-7.95196000">
        <ele>4.0000000</ele>
        <time>2010-01-01T04:03:32Z</time>
      </trkpt>
      <trkpt lat="37.03320000" lon="-7.95203000">
        <ele>3.0000000</ele>
        <time>2010-01-01T04:03:35Z</time>
      </trkpt>
      <trkpt lat="37.03260370" lon="-7.95156955">
        <ele>2.0000000</ele>
        <time>2010-01-01T04:04:03Z</time>
      </trkpt>
      <trkpt lat="37.03181580" lon="-7.95094728">
        <ele>3.0000000</ele>
        <time>2010-01-01T04:04:40Z</time>
      </trkpt>
      <trkpt lat="37.03051390" lon="-7.94993877">
        <ele>6.0000000</ele>
        <time>2010-01-01T04:05:41Z</time>
      </trkpt>
      <trkpt lat="37.03005140" lon="-7.94963836">
        <ele>5.0000000</ele>
        <time>2010-01-01T04:06:02Z</time>
      </trkpt>
      <trkpt lat="37.02976020" lon="-7.94974565">
        <ele>3.0000000</ele>
        <time>2010-01-01T04:06:14Z</time>
      </trkpt>
      <trkpt lat="37.02946900" lon="-7.94985294">
        <ele>1.0000000</ele>
        <time>2010-01-01T04:06:26Z</time>
      </trkpt>
      <trkpt lat="37.02926340" lon="-7.94981002">
        <ele>1.0000000</ele>
        <time>2010-01-01T04:06:35Z</time>
      </trkpt>
      <trkpt lat="37.02897220" lon="-7.94920921">
        <ele>4.0000000</ele>
        <time>2010-01-01T04:06:57Z</time>
      </trkpt>
      <trkpt lat="37.02832120" lon="-7.94858694">
        <ele>4.0000000</ele>
        <time>2010-01-01T04:07:30Z</time>
      </trkpt>
      <trkpt lat="37.02753320" lon="-7.94807195">
        <ele>6.0000000</ele>
        <time>2010-01-01T04:08:06Z</time>
      </trkpt>
      <trkpt lat="37.02710500" lon="-7.94762134">
        <ele>7.0000000</ele>
        <time>2010-01-01T04:08:28Z</time>
      </trkpt>
      <trkpt lat="37.02671090" lon="-7.94734239">
        <ele>7.0000000</ele>
        <time>2010-01-01T04:08:46Z</time>
      </trkpt>
      <trkpt lat="37.02647970" lon="-7.94726729">
        <ele>6.0000000</ele>
        <time>2010-01-01T04:08:56Z</time>
      </trkpt>
      <trkpt lat="37.02615420" lon="-7.94725656">
        <ele>5.0000000</ele>
        <time>2010-01-01T04:09:09Z</time>
      </trkpt>
      <trkpt lat="37.02587150" lon="-7.94738531">
        <ele>2.0000000</ele>
        <time>2010-01-01T04:09:21Z</time>
      </trkpt>
      <trkpt lat="37.02595720" lon="-7.94711709">
        <ele>4.0000000</ele>
        <time>2010-01-01T04:09:30Z</time>
      </trkpt>
      <trkpt lat="37.02595720" lon="-7.94672012">
        <ele>7.0000000</ele>
        <time>2010-01-01T04:09:43Z</time>
      </trkpt>
      <trkpt lat="37.02528910" lon="-7.94601202">
        <ele>6.0000000</ele>
        <time>2010-01-01T04:10:18Z</time>
      </trkpt>
      <trkpt lat="37.02434680" lon="-7.94517517">
        <ele>6.0000000</ele>
        <time>2010-01-01T04:11:04Z</time>
      </trkpt>
      <trkpt lat="37.02402140" lon="-7.94490694">
        <ele>3.0000000</ele>
        <time>2010-01-01T04:11:20Z</time>
      </trkpt>
      <trkpt lat="37.02373000" lon="-7.94459000">
        <ele>1.0000000</ele>
        <time>2010-01-01T04:11:35Z</time>
      </trkpt>
      <trkpt lat="37.02236000" lon="-7.94343000">
        <ele>4.0000000</ele>
        <time>2010-01-01T04:12:41Z</time>
      </trkpt>
      <trkpt lat="37.02116000" lon="-7.94240000">
        <ele>8.0000000</ele>
        <time>2010-01-01T04:13:39Z</time>
      </trkpt>
      <trkpt lat="37.02015000" lon="-7.94168000">
        <ele>6.0000000</ele>
        <time>2010-01-01T04:14:26Z</time>
      </trkpt>
      <trkpt lat="37.01966000" lon="-7.94136000">
        <ele>5.0000000</ele>
        <time>2010-01-01T04:14:48Z</time>
      </trkpt>
      <trkpt lat="37.01855000" lon="-7.94037000">
        <ele>1.0000000</ele>
        <time>2010-01-01T04:15:43Z</time>
      </trkpt>
      <trkpt lat="37.01743000" lon="-7.93932000">
        <ele>4.0000000</ele>
        <time>2010-01-01T04:16:39Z</time>
      </trkpt>
      <trkpt lat="37.01729000" lon="-7.93914000">
        <ele>4.0000000</ele>
        <time>2010-01-01T04:16:47Z</time>
      </trkpt>
      <trkpt lat="37.01716000" lon="-7.93890000">
        <ele>3.0000000</ele>
        <time>2010-01-01T04:16:56Z</time>
      </trkpt>
      <trkpt lat="37.01702000" lon="-7.93876000">
        <ele>3.0000000</ele>
        <time>2010-01-01T04:17:03Z</time>
      </trkpt>
      <trkpt lat="37.01679000" lon="-7.93859000">
        <ele>4.0000000</ele>
        <time>2010-01-01T04:17:14Z</time>
      </trkpt>
      <trkpt lat="37.01647000" lon="-7.93842000">
        <ele>3.0000000</ele>
        <time>2010-01-01T04:17:28Z</time>
      </trkpt>
      <trkpt lat="37.01598000" lon="-7.93812000">
        <ele>3.0000000</ele>
        <time>2010-01-01T04:17:50Z</time>
      </trkpt>
      <trkpt lat="37.01610190" lon="-7.93781518">
        <ele>3.0000000</ele>
        <time>2010-01-01T04:18:00Z</time>
      </trkpt>
      <trkpt lat="37.01609000" lon="-7.93784000">
        <ele>3.0000000</ele>
        <time>2010-01-01T04:18:01Z</time>
      </trkpt>
      <trkpt lat="37.01723000" lon="-7.93850000">
        <ele>3.0000000</ele>
        <time>2010-01-01T04:18:52Z</time>
      </trkpt>
      <trkpt lat="37.01766000" lon="-7.93832000">
        <ele>6.0000000</ele>
        <time>2010-01-01T04:19:10Z</time>
      </trkpt>
      <trkpt lat="37.01764000" lon="-7.93828000">
        <ele>6.0000000</ele>
        <time>2010-01-01T04:19:11Z</time>
      </trkpt>
      <trkpt lat="37.01719000" lon="-7.93727000">
        <ele>19.000000</ele>
        <time>2010-01-01T04:19:48Z</time>
      </trkpt>
      <trkpt lat="37.01675000" lon="-7.93635000">
        <ele>11.000000</ele>
        <time>2010-01-01T04:20:23Z</time>
      </trkpt>
      <trkpt lat="37.01643000" lon="-7.93584000">
        <ele>5.0000000</ele>
        <time>2010-01-01T04:20:43Z</time>
      </trkpt>
      <trkpt lat="37.01607190" lon="-7.93536901">
        <ele>4.0000000</ele>
        <time>2010-01-01T04:21:04Z</time>
      </trkpt>
      <trkpt lat="37.01608000" lon="-7.93534000">
        <ele>4.0000000</ele>
        <time>2010-01-01T04:21:05Z</time>
      </trkpt>
      <trkpt lat="37.01601000" lon="-7.93533000">
        <ele>4.0000000</ele>
        <time>2010-01-01T04:21:08Z</time>
      </trkpt>
      <trkpt lat="37.01471000" lon="-7.93552000">
        <ele>6.0000000</ele>
        <time>2010-01-01T04:22:00Z</time>
      </trkpt>
      <trkpt lat="37.01465000" lon="-7.93546000">
        <ele>8.0000000</ele>
        <time>2010-01-01T04:22:03Z</time>
      </trkpt>
      <trkpt lat="37.01465000" lon="-7.93536000">
        <ele>9.0000000</ele>
        <time>2010-01-01T04:22:07Z</time>
      </trkpt>
      <trkpt lat="37.01472000" lon="-7.93516000">
        <ele>10.000000</ele>
        <time>2010-01-01T04:22:14Z</time>
      </trkpt>
      <trkpt lat="37.01472000" lon="-7.93517000">
        <ele>10.000000</ele>
        <time>2010-01-01T04:22:14Z</time>
      </trkpt>
      <trkpt lat="37.01481000" lon="-7.93479000">
        <ele>12.000000</ele>
        <time>2010-01-01T04:22:27Z</time>
      </trkpt>
      <trkpt lat="37.01484000" lon="-7.93416000">
        <ele>11.000000</ele>
        <time>2010-01-01T04:22:47Z</time>
      </trkpt>
      <trkpt lat="37.01444000" lon="-7.93358000">
        <ele>9.0000000</ele>
        <time>2010-01-01T04:23:11Z</time>
      </trkpt>
      <trkpt lat="37.01423000" lon="-7.93308000">
        <ele>9.0000000</ele>
        <time>2010-01-01T04:23:29Z</time>
      </trkpt>
      <trkpt lat="37.01424000" lon="-7.93300000">
        <ele>9.0000000</ele>
        <time>2010-01-01T04:23:32Z</time>
      </trkpt>
      <trkpt lat="37.01427000" lon="-7.93295000">
        <ele>9.0000000</ele>
        <time>2010-01-01T04:23:34Z</time>
      </trkpt>
      <trkpt lat="37.01451000" lon="-7.93291000">
        <ele>9.0000000</ele>
        <time>2010-01-01T04:23:44Z</time>
      </trkpt>
      <trkpt lat="37.01456000" lon="-7.93287000">
        <ele>10.000000</ele>
        <time>2010-01-01T04:23:46Z</time>
      </trkpt>
      <trkpt lat="37.01457000" lon="-7.93283000">
        <ele>10.000000</ele>
        <time>2010-01-01T04:23:47Z</time>
      </trkpt>
      <trkpt lat="37.01455000" lon="-7.93257000">
        <ele>10.000000</ele>
        <time>2010-01-01T04:23:56Z</time>
      </trkpt>
      <trkpt lat="37.01459000" lon="-7.93226000">
        <ele>11.000000</ele>
        <time>2010-01-01T04:24:06Z</time>
      </trkpt>
      <trkpt lat="37.01459000" lon="-7.93227000">
        <ele>11.000000</ele>
        <time>2010-01-01T04:24:06Z</time>
      </trkpt>
      <trkpt lat="37.01464000" lon="-7.93205000">
        <ele>12.000000</ele>
        <time>2010-01-01T04:24:13Z</time>
      </trkpt>
      <trkpt lat="37.01470000" lon="-7.93187000">
        <ele>13.000000</ele>
        <time>2010-01-01T04:24:19Z</time>
      </trkpt>
      <trkpt lat="37.01483000" lon="-7.93157000">
        <ele>14.000000</ele>
        <time>2010-01-01T04:24:30Z</time>
      </trkpt>
      <trkpt lat="37.01489000" lon="-7.93154000">
        <ele>14.000000</ele>
        <time>2010-01-01T04:24:33Z</time>
      </trkpt>
      <trkpt lat="37.01501000" lon="-7.93152000">
        <ele>14.000000</ele>
        <time>2010-01-01T04:24:38Z</time>
      </trkpt>
      <trkpt lat="37.01508000" lon="-7.93093000">
        <ele>15.000000</ele>
        <time>2010-01-01T04:24:57Z</time>
      </trkpt>
      <trkpt lat="37.01504000" lon="-7.93085000">
        <ele>15.000000</ele>
        <time>2010-01-01T04:25:00Z</time>
      </trkpt>
      <trkpt lat="37.01498000" lon="-7.93084000">
        <ele>14.000000</ele>
        <time>2010-01-01T04:25:02Z</time>
      </trkpt>
      <trkpt lat="37.01495000" lon="-7.93085000">
        <ele>14.000000</ele>
        <time>2010-01-01T04:25:04Z</time>
      </trkpt>
      <trkpt lat="37.01494000" lon="-7.93085000">
        <ele>14.000000</ele>
        <time>2010-01-01T04:25:04Z</time>
      </trkpt>
      <trkpt lat="37.01483000" lon="-7.93091000">
        <ele>13.000000</ele>
        <time>2010-01-01T04:25:09Z</time>
      </trkpt>
      <trkpt lat="37.01480000" lon="-7.93096000">
        <ele>13.000000</ele>
        <time>2010-01-01T04:25:11Z</time>
      </trkpt>
    </trkseg>
  </trk>
</gpx>
